<?xml version="1.0" encoding="UTF-8" standalone="no" ?>
<gpx xmlns="http://www.topografix.com/GPX/1/1" xmlns:xsi="http://www.w3.org/2001/XMLSchema-instance" xsi:schemaLocation="http://www.topografix.com/GPX/1/1 http://www.topografix.com/GPX/1/1/gpx.xsd" version="1.1" creator="VisuGPX - https://www.visugpx.com">
  <metadata>
    <name>Valmasque - RRaTT 30/03/11</name>
    <desc><![CDATA[Balade du midi sur les sentiers de Ross]]></desc>
  </metadata>
  <trk>
    <name><![CDATA[Valmasque - RRaTT]]></name>
    <trkseg>
      <trkpt lat="43.62359" lon="7.06109">
        <ele>141</ele>
        <time>2011-03-30T10:19:26.000Z</time>
      </trkpt>
      <trkpt lat="43.62364" lon="7.06096">
        <ele>142.19999694824</ele>
        <time>2011-03-30T10:19:30.000Z</time>
      </trkpt>
      <trkpt lat="43.62374" lon="7.06062">
        <ele>144.39999389648</ele>
        <time>2011-03-30T10:19:39.000Z</time>
      </trkpt>
      <trkpt lat="43.62384" lon="7.06035">
        <ele>145.80000305176</ele>
        <time>2011-03-30T10:19:44.000Z</time>
      </trkpt>
      <trkpt lat="43.62394" lon="7.06014">
        <ele>146.60000610352</ele>
        <time>2011-03-30T10:19:49.000Z</time>
      </trkpt>
      <trkpt lat="43.62408" lon="7.05999">
        <ele>147</ele>
        <time>2011-03-30T10:19:54.000Z</time>
      </trkpt>
      <trkpt lat="43.62409" lon="7.05981">
        <ele>146.80000305176</ele>
        <time>2011-03-30T10:19:58.000Z</time>
      </trkpt>
      <trkpt lat="43.62405" lon="7.05968">
        <ele>146.39999389648</ele>
        <time>2011-03-30T10:20:01.000Z</time>
      </trkpt>
      <trkpt lat="43.6241" lon="7.05948">
        <ele>146.19999694824</ele>
        <time>2011-03-30T10:20:06.000Z</time>
      </trkpt>
      <trkpt lat="43.62413" lon="7.05937">
        <ele>146</ele>
        <time>2011-03-30T10:20:09.000Z</time>
      </trkpt>
      <trkpt lat="43.62416" lon="7.05927">
        <ele>146</ele>
        <time>2011-03-30T10:20:14.000Z</time>
      </trkpt>
      <trkpt lat="43.62418" lon="7.05914">
        <ele>146</ele>
        <time>2011-03-30T10:20:18.000Z</time>
      </trkpt>
      <trkpt lat="43.62428" lon="7.05905">
        <ele>146.60000610352</ele>
        <time>2011-03-30T10:20:22.000Z</time>
      </trkpt>
      <trkpt lat="43.62451" lon="7.05897">
        <ele>148</ele>
        <time>2011-03-30T10:20:30.000Z</time>
      </trkpt>
      <trkpt lat="43.62469" lon="7.05899">
        <ele>149.39999389648</ele>
        <time>2011-03-30T10:20:36.000Z</time>
      </trkpt>
      <trkpt lat="43.62483" lon="7.05926">
        <ele>151.39999389648</ele>
        <time>2011-03-30T10:20:43.000Z</time>
      </trkpt>
      <trkpt lat="43.62484" lon="7.05931">
        <ele>151.39999389648</ele>
        <time>2011-03-30T10:20:44.000Z</time>
      </trkpt>
      <trkpt lat="43.62488" lon="7.05954">
        <ele>151.60000610352</ele>
        <time>2011-03-30T10:20:49.000Z</time>
      </trkpt>
      <trkpt lat="43.62497" lon="7.05963">
        <ele>152.19999694824</ele>
        <time>2011-03-30T10:20:53.000Z</time>
      </trkpt>
      <trkpt lat="43.62504" lon="7.05981">
        <ele>152.39999389648</ele>
        <time>2011-03-30T10:20:59.000Z</time>
      </trkpt>
      <trkpt lat="43.62503" lon="7.0599">
        <ele>152.19999694824</ele>
        <time>2011-03-30T10:21:01.000Z</time>
      </trkpt>
      <trkpt lat="43.62511" lon="7.06014">
        <ele>151.60000610352</ele>
        <time>2011-03-30T10:21:06.000Z</time>
      </trkpt>
      <trkpt lat="43.62528" lon="7.06031">
        <ele>150.80000305176</ele>
        <time>2011-03-30T10:21:11.000Z</time>
      </trkpt>
      <trkpt lat="43.62535" lon="7.06033">
        <ele>150.60000610352</ele>
        <time>2011-03-30T10:21:13.000Z</time>
      </trkpt>
      <trkpt lat="43.62552" lon="7.06028">
        <ele>151</ele>
        <time>2011-03-30T10:21:18.000Z</time>
      </trkpt>
      <trkpt lat="43.62563" lon="7.06014">
        <ele>152.60000610352</ele>
        <time>2011-03-30T10:21:22.000Z</time>
      </trkpt>
      <trkpt lat="43.62573" lon="7.05995">
        <ele>154.60000610352</ele>
        <time>2011-03-30T10:21:26.000Z</time>
      </trkpt>
      <trkpt lat="43.6258" lon="7.0598">
        <ele>155.39999389648</ele>
        <time>2011-03-30T10:21:29.000Z</time>
      </trkpt>
      <trkpt lat="43.626" lon="7.05958">
        <ele>156.80000305176</ele>
        <time>2011-03-30T10:21:35.000Z</time>
      </trkpt>
      <trkpt lat="43.62603" lon="7.05955">
        <ele>157</ele>
        <time>2011-03-30T10:21:36.000Z</time>
      </trkpt>
      <trkpt lat="43.62619" lon="7.05941">
        <ele>158.39999389648</ele>
        <time>2011-03-30T10:21:42.000Z</time>
      </trkpt>
      <trkpt lat="43.62632" lon="7.05944">
        <ele>158.60000610352</ele>
        <time>2011-03-30T10:21:47.000Z</time>
      </trkpt>
      <trkpt lat="43.6265" lon="7.05951">
        <ele>158.80000305176</ele>
        <time>2011-03-30T10:21:52.000Z</time>
      </trkpt>
      <trkpt lat="43.6267" lon="7.05965">
        <ele>158</ele>
        <time>2011-03-30T10:21:58.000Z</time>
      </trkpt>
      <trkpt lat="43.62691" lon="7.05977">
        <ele>159</ele>
        <time>2011-03-30T10:22:04.000Z</time>
      </trkpt>
      <trkpt lat="43.62709" lon="7.05983">
        <ele>160.60000610352</ele>
        <time>2011-03-30T10:22:09.000Z</time>
      </trkpt>
      <trkpt lat="43.62734" lon="7.05997">
        <ele>162.39999389648</ele>
        <time>2011-03-30T10:22:15.000Z</time>
      </trkpt>
      <trkpt lat="43.62742" lon="7.06003">
        <ele>162.60000610352</ele>
        <time>2011-03-30T10:22:17.000Z</time>
      </trkpt>
      <trkpt lat="43.62753" lon="7.06012">
        <ele>163.19999694824</ele>
        <time>2011-03-30T10:22:20.000Z</time>
      </trkpt>
      <trkpt lat="43.62764" lon="7.06024">
        <ele>163.39999389648</ele>
        <time>2011-03-30T10:22:23.000Z</time>
      </trkpt>
      <trkpt lat="43.6277" lon="7.06032">
        <ele>163.39999389648</ele>
        <time>2011-03-30T10:22:25.000Z</time>
      </trkpt>
      <trkpt lat="43.62782" lon="7.06042">
        <ele>163.80000305176</ele>
        <time>2011-03-30T10:22:28.000Z</time>
      </trkpt>
      <trkpt lat="43.62791" lon="7.06057">
        <ele>163.39999389648</ele>
        <time>2011-03-30T10:22:32.000Z</time>
      </trkpt>
      <trkpt lat="43.62801" lon="7.06077">
        <ele>162.80000305176</ele>
        <time>2011-03-30T10:22:37.000Z</time>
      </trkpt>
      <trkpt lat="43.62807" lon="7.06085">
        <ele>162.39999389648</ele>
        <time>2011-03-30T10:22:40.000Z</time>
      </trkpt>
      <trkpt lat="43.62819" lon="7.06091">
        <ele>162.60000610352</ele>
        <time>2011-03-30T10:22:46.000Z</time>
      </trkpt>
      <trkpt lat="43.62821" lon="7.06091">
        <ele>162.80000305176</ele>
        <time>2011-03-30T10:22:47.000Z</time>
      </trkpt>
      <trkpt lat="43.62828" lon="7.06076">
        <ele>165</ele>
        <time>2011-03-30T10:22:53.000Z</time>
      </trkpt>
      <trkpt lat="43.6283" lon="7.06071">
        <ele>165.60000610352</ele>
        <time>2011-03-30T10:22:55.000Z</time>
      </trkpt>
      <trkpt lat="43.62833" lon="7.06062">
        <ele>166.60000610352</ele>
        <time>2011-03-30T10:22:58.000Z</time>
      </trkpt>
      <trkpt lat="43.62828" lon="7.06041">
        <ele>168</ele>
        <time>2011-03-30T10:23:04.000Z</time>
      </trkpt>
      <trkpt lat="43.62835" lon="7.06025">
        <ele>169.60000610352</ele>
        <time>2011-03-30T10:23:10.000Z</time>
      </trkpt>
      <trkpt lat="43.62838" lon="7.06012">
        <ele>170.39999389648</ele>
        <time>2011-03-30T10:23:14.000Z</time>
      </trkpt>
      <trkpt lat="43.62846" lon="7.05996">
        <ele>171</ele>
        <time>2011-03-30T10:23:19.000Z</time>
      </trkpt>
      <trkpt lat="43.62854" lon="7.05974">
        <ele>171.19999694824</ele>
        <time>2011-03-30T10:23:26.000Z</time>
      </trkpt>
      <trkpt lat="43.62862" lon="7.0596">
        <ele>171</ele>
        <time>2011-03-30T10:23:31.000Z</time>
      </trkpt>
      <trkpt lat="43.62873" lon="7.05944">
        <ele>170.19999694824</ele>
        <time>2011-03-30T10:23:37.000Z</time>
      </trkpt>
      <trkpt lat="43.62882" lon="7.0593">
        <ele>169.80000305176</ele>
        <time>2011-03-30T10:23:41.000Z</time>
      </trkpt>
      <trkpt lat="43.62894" lon="7.05906">
        <ele>168.80000305176</ele>
        <time>2011-03-30T10:23:46.000Z</time>
      </trkpt>
      <trkpt lat="43.62894" lon="7.05892">
        <ele>168.80000305176</ele>
        <time>2011-03-30T10:23:48.000Z</time>
      </trkpt>
      <trkpt lat="43.62896" lon="7.05865">
        <ele>168.80000305176</ele>
        <time>2011-03-30T10:23:52.000Z</time>
      </trkpt>
      <trkpt lat="43.62898" lon="7.05852">
        <ele>168.80000305176</ele>
        <time>2011-03-30T10:23:54.000Z</time>
      </trkpt>
      <trkpt lat="43.62903" lon="7.05816">
        <ele>167.80000305176</ele>
        <time>2011-03-30T10:23:59.000Z</time>
      </trkpt>
      <trkpt lat="43.62892" lon="7.05781">
        <ele>167.80000305176</ele>
        <time>2011-03-30T10:24:03.000Z</time>
      </trkpt>
      <trkpt lat="43.62863" lon="7.0573">
        <ele>169</ele>
        <time>2011-03-30T10:24:10.000Z</time>
      </trkpt>
      <trkpt lat="43.62864" lon="7.05707">
        <ele>169.19999694824</ele>
        <time>2011-03-30T10:24:14.000Z</time>
      </trkpt>
      <trkpt lat="43.6287" lon="7.0569">
        <ele>169.19999694824</ele>
        <time>2011-03-30T10:24:18.000Z</time>
      </trkpt>
      <trkpt lat="43.62878" lon="7.05669">
        <ele>169.39999389648</ele>
        <time>2011-03-30T10:24:26.000Z</time>
      </trkpt>
      <trkpt lat="43.62886" lon="7.05649">
        <ele>170.19999694824</ele>
        <time>2011-03-30T10:24:33.000Z</time>
      </trkpt>
      <trkpt lat="43.62893" lon="7.05628">
        <ele>171.39999389648</ele>
        <time>2011-03-30T10:24:39.000Z</time>
      </trkpt>
      <trkpt lat="43.62902" lon="7.05599">
        <ele>173.60000610352</ele>
        <time>2011-03-30T10:24:47.000Z</time>
      </trkpt>
      <trkpt lat="43.62906" lon="7.05575">
        <ele>175.39999389648</ele>
        <time>2011-03-30T10:24:54.000Z</time>
      </trkpt>
      <trkpt lat="43.62908" lon="7.05549">
        <ele>176.60000610352</ele>
        <time>2011-03-30T10:25:01.000Z</time>
      </trkpt>
      <trkpt lat="43.6291" lon="7.05525">
        <ele>177.80000305176</ele>
        <time>2011-03-30T10:25:07.000Z</time>
      </trkpt>
      <trkpt lat="43.6292" lon="7.0551">
        <ele>179.39999389648</ele>
        <time>2011-03-30T10:25:12.000Z</time>
      </trkpt>
      <trkpt lat="43.62932" lon="7.05498">
        <ele>179.19999694824</ele>
        <time>2011-03-30T10:25:17.000Z</time>
      </trkpt>
      <trkpt lat="43.62949" lon="7.05477">
        <ele>178.39999389648</ele>
        <time>2011-03-30T10:25:24.000Z</time>
      </trkpt>
      <trkpt lat="43.62957" lon="7.05456">
        <ele>177.80000305176</ele>
        <time>2011-03-30T10:25:30.000Z</time>
      </trkpt>
      <trkpt lat="43.62965" lon="7.05436">
        <ele>177.60000610352</ele>
        <time>2011-03-30T10:25:35.000Z</time>
      </trkpt>
      <trkpt lat="43.62974" lon="7.05403">
        <ele>177.80000305176</ele>
        <time>2011-03-30T10:25:42.000Z</time>
      </trkpt>
      <trkpt lat="43.62986" lon="7.05361">
        <ele>180.39999389648</ele>
        <time>2011-03-30T10:25:52.000Z</time>
      </trkpt>
      <trkpt lat="43.63" lon="7.0533">
        <ele>183</ele>
        <time>2011-03-30T10:26:00.000Z</time>
      </trkpt>
      <trkpt lat="43.6301" lon="7.05306">
        <ele>182</ele>
        <time>2011-03-30T10:26:06.000Z</time>
      </trkpt>
      <trkpt lat="43.63018" lon="7.05269">
        <ele>181.80000305176</ele>
        <time>2011-03-30T10:26:14.000Z</time>
      </trkpt>
      <trkpt lat="43.63015" lon="7.05253">
        <ele>183.19999694824</ele>
        <time>2011-03-30T10:26:18.000Z</time>
      </trkpt>
      <trkpt lat="43.63006" lon="7.05223">
        <ele>184.39999389648</ele>
        <time>2011-03-30T10:26:25.000Z</time>
      </trkpt>
      <trkpt lat="43.62996" lon="7.05193">
        <ele>184.60000610352</ele>
        <time>2011-03-30T10:26:31.000Z</time>
      </trkpt>
      <trkpt lat="43.62989" lon="7.05175">
        <ele>183.60000610352</ele>
        <time>2011-03-30T10:26:34.000Z</time>
      </trkpt>
      <trkpt lat="43.62985" lon="7.05155">
        <ele>182.60000610352</ele>
        <time>2011-03-30T10:26:37.000Z</time>
      </trkpt>
      <trkpt lat="43.62987" lon="7.05111">
        <ele>180.80000305176</ele>
        <time>2011-03-30T10:26:42.000Z</time>
      </trkpt>
      <trkpt lat="43.62993" lon="7.05082">
        <ele>179.80000305176</ele>
        <time>2011-03-30T10:26:45.000Z</time>
      </trkpt>
      <trkpt lat="43.62993" lon="7.05053">
        <ele>179.60000610352</ele>
        <time>2011-03-30T10:26:48.000Z</time>
      </trkpt>
      <trkpt lat="43.63" lon="7.05009">
        <ele>179</ele>
        <time>2011-03-30T10:26:52.000Z</time>
      </trkpt>
      <trkpt lat="43.63011" lon="7.04975">
        <ele>176.80000305176</ele>
        <time>2011-03-30T10:26:55.000Z</time>
      </trkpt>
      <trkpt lat="43.63032" lon="7.04914">
        <ele>173.19999694824</ele>
        <time>2011-03-30T10:27:00.000Z</time>
      </trkpt>
      <trkpt lat="43.63038" lon="7.04903">
        <ele>172</ele>
        <time>2011-03-30T10:27:01.000Z</time>
      </trkpt>
      <trkpt lat="43.63051" lon="7.04844">
        <ele>168.80000305176</ele>
        <time>2011-03-30T10:27:06.000Z</time>
      </trkpt>
      <trkpt lat="43.63045" lon="7.04833">
        <ele>169.80000305176</ele>
        <time>2011-03-30T10:27:07.000Z</time>
      </trkpt>
      <trkpt lat="43.63031" lon="7.04778">
        <ele>172.19999694824</ele>
        <time>2011-03-30T10:27:12.000Z</time>
      </trkpt>
      <trkpt lat="43.63029" lon="7.04751">
        <ele>172.60000610352</ele>
        <time>2011-03-30T10:27:15.000Z</time>
      </trkpt>
      <trkpt lat="43.63023" lon="7.04706">
        <ele>171.60000610352</ele>
        <time>2011-03-30T10:27:22.000Z</time>
      </trkpt>
      <trkpt lat="43.63021" lon="7.04694">
        <ele>171.19999694824</ele>
        <time>2011-03-30T10:27:24.000Z</time>
      </trkpt>
      <trkpt lat="43.63008" lon="7.04654">
        <ele>172</ele>
        <time>2011-03-30T10:27:31.000Z</time>
      </trkpt>
      <trkpt lat="43.62986" lon="7.04616">
        <ele>174</ele>
        <time>2011-03-30T10:27:39.000Z</time>
      </trkpt>
      <trkpt lat="43.62968" lon="7.04592">
        <ele>175.19999694824</ele>
        <time>2011-03-30T10:27:45.000Z</time>
      </trkpt>
      <trkpt lat="43.62938" lon="7.04567">
        <ele>178.39999389648</ele>
        <time>2011-03-30T10:27:53.000Z</time>
      </trkpt>
      <trkpt lat="43.62932" lon="7.04561">
        <ele>179</ele>
        <time>2011-03-30T10:27:55.000Z</time>
      </trkpt>
      <trkpt lat="43.62913" lon="7.0453">
        <ele>179.80000305176</ele>
        <time>2011-03-30T10:28:03.000Z</time>
      </trkpt>
      <trkpt lat="43.6291" lon="7.04528">
        <ele>179.80000305176</ele>
        <time>2011-03-30T10:28:04.000Z</time>
      </trkpt>
      <trkpt lat="43.62905" lon="7.04512">
        <ele>179.60000610352</ele>
        <time>2011-03-30T10:28:09.000Z</time>
      </trkpt>
      <trkpt lat="43.62891" lon="7.04488">
        <ele>180</ele>
        <time>2011-03-30T10:28:15.000Z</time>
      </trkpt>
      <trkpt lat="43.62885" lon="7.04469">
        <ele>181</ele>
        <time>2011-03-30T10:28:21.000Z</time>
      </trkpt>
      <trkpt lat="43.6289" lon="7.04452">
        <ele>181.80000305176</ele>
        <time>2011-03-30T10:28:26.000Z</time>
      </trkpt>
      <trkpt lat="43.62899" lon="7.04432">
        <ele>183.19999694824</ele>
        <time>2011-03-30T10:28:31.000Z</time>
      </trkpt>
      <trkpt lat="43.62904" lon="7.04411">
        <ele>184.60000610352</ele>
        <time>2011-03-30T10:28:36.000Z</time>
      </trkpt>
      <trkpt lat="43.62908" lon="7.04396">
        <ele>185.60000610352</ele>
        <time>2011-03-30T10:28:40.000Z</time>
      </trkpt>
      <trkpt lat="43.62909" lon="7.04393">
        <ele>186</ele>
        <time>2011-03-30T10:28:41.000Z</time>
      </trkpt>
      <trkpt lat="43.62914" lon="7.0439">
        <ele>186.39999389648</ele>
        <time>2011-03-30T10:28:44.000Z</time>
      </trkpt>
      <trkpt lat="43.6292" lon="7.0438">
        <ele>187.39999389648</ele>
        <time>2011-03-30T10:28:49.000Z</time>
      </trkpt>
      <trkpt lat="43.62927" lon="7.04381">
        <ele>187.60000610352</ele>
        <time>2011-03-30T10:28:54.000Z</time>
      </trkpt>
      <trkpt lat="43.62937" lon="7.04386">
        <ele>187.80000305176</ele>
        <time>2011-03-30T10:29:03.000Z</time>
      </trkpt>
      <trkpt lat="43.62946" lon="7.04388">
        <ele>188</ele>
        <time>2011-03-30T10:29:10.000Z</time>
      </trkpt>
      <trkpt lat="43.6295" lon="7.04388">
        <ele>188.19999694824</ele>
        <time>2011-03-30T10:29:14.000Z</time>
      </trkpt>
      <trkpt lat="43.62959" lon="7.04388">
        <ele>188.60000610352</ele>
        <time>2011-03-30T10:29:21.000Z</time>
      </trkpt>
      <trkpt lat="43.62966" lon="7.04384">
        <ele>189.39999389648</ele>
        <time>2011-03-30T10:29:27.000Z</time>
      </trkpt>
      <trkpt lat="43.62974" lon="7.0438">
        <ele>190</ele>
        <time>2011-03-30T10:29:32.000Z</time>
      </trkpt>
      <trkpt lat="43.62986" lon="7.04376">
        <ele>191</ele>
        <time>2011-03-30T10:29:39.000Z</time>
      </trkpt>
      <trkpt lat="43.63001" lon="7.04373">
        <ele>192.19999694824</ele>
        <time>2011-03-30T10:29:46.000Z</time>
      </trkpt>
      <trkpt lat="43.63018" lon="7.04369">
        <ele>192.19999694824</ele>
        <time>2011-03-30T10:29:54.000Z</time>
      </trkpt>
      <trkpt lat="43.63032" lon="7.04363">
        <ele>193</ele>
        <time>2011-03-30T10:30:01.000Z</time>
      </trkpt>
      <trkpt lat="43.63049" lon="7.0436">
        <ele>193.19999694824</ele>
        <time>2011-03-30T10:30:09.000Z</time>
      </trkpt>
      <trkpt lat="43.63056" lon="7.04361">
        <ele>193</ele>
        <time>2011-03-30T10:30:13.000Z</time>
      </trkpt>
      <trkpt lat="43.63072" lon="7.0436">
        <ele>193</ele>
        <time>2011-03-30T10:30:20.000Z</time>
      </trkpt>
      <trkpt lat="43.63085" lon="7.04355">
        <ele>193.80000305176</ele>
        <time>2011-03-30T10:30:26.000Z</time>
      </trkpt>
      <trkpt lat="43.63098" lon="7.04345">
        <ele>195.39999389648</ele>
        <time>2011-03-30T10:30:32.000Z</time>
      </trkpt>
      <trkpt lat="43.63111" lon="7.04341">
        <ele>196</ele>
        <time>2011-03-30T10:30:38.000Z</time>
      </trkpt>
      <trkpt lat="43.63124" lon="7.04333">
        <ele>197</ele>
        <time>2011-03-30T10:30:44.000Z</time>
      </trkpt>
      <trkpt lat="43.63127" lon="7.04325">
        <ele>197</ele>
        <time>2011-03-30T10:30:47.000Z</time>
      </trkpt>
      <trkpt lat="43.63141" lon="7.04318">
        <ele>197</ele>
        <time>2011-03-30T10:30:54.000Z</time>
      </trkpt>
      <trkpt lat="43.63154" lon="7.04315">
        <ele>196.60000610352</ele>
        <time>2011-03-30T10:31:01.000Z</time>
      </trkpt>
      <trkpt lat="43.63161" lon="7.04312">
        <ele>196.39999389648</ele>
        <time>2011-03-30T10:31:05.000Z</time>
      </trkpt>
      <trkpt lat="43.63169" lon="7.04302">
        <ele>195.19999694824</ele>
        <time>2011-03-30T10:31:10.000Z</time>
      </trkpt>
      <trkpt lat="43.63164" lon="7.04288">
        <ele>195.39999389648</ele>
        <time>2011-03-30T10:31:15.000Z</time>
      </trkpt>
      <trkpt lat="43.63161" lon="7.04281">
        <ele>195.39999389648</ele>
        <time>2011-03-30T10:31:18.000Z</time>
      </trkpt>
      <trkpt lat="43.6315" lon="7.0426">
        <ele>196</ele>
        <time>2011-03-30T10:31:26.000Z</time>
      </trkpt>
      <trkpt lat="43.63143" lon="7.04246">
        <ele>196.39999389648</ele>
        <time>2011-03-30T10:31:32.000Z</time>
      </trkpt>
      <trkpt lat="43.63141" lon="7.04243">
        <ele>196.39999389648</ele>
        <time>2011-03-30T10:31:36.000Z</time>
      </trkpt>
      <trkpt lat="43.63139" lon="7.04236">
        <ele>196</ele>
        <time>2011-03-30T10:31:41.000Z</time>
      </trkpt>
      <trkpt lat="43.63135" lon="7.04224">
        <ele>195.60000610352</ele>
        <time>2011-03-30T10:31:45.000Z</time>
      </trkpt>
      <trkpt lat="43.63122" lon="7.04202">
        <ele>196.39999389648</ele>
        <time>2011-03-30T10:31:52.000Z</time>
      </trkpt>
      <trkpt lat="43.63108" lon="7.04186">
        <ele>198</ele>
        <time>2011-03-30T10:31:58.000Z</time>
      </trkpt>
      <trkpt lat="43.63094" lon="7.04163">
        <ele>200</ele>
        <time>2011-03-30T10:32:05.000Z</time>
      </trkpt>
      <trkpt lat="43.6308" lon="7.04147">
        <ele>200.60000610352</ele>
        <time>2011-03-30T10:32:11.000Z</time>
      </trkpt>
      <trkpt lat="43.63067" lon="7.04136">
        <ele>199.60000610352</ele>
        <time>2011-03-30T10:32:16.000Z</time>
      </trkpt>
      <trkpt lat="43.63056" lon="7.04126">
        <ele>198.80000305176</ele>
        <time>2011-03-30T10:32:20.000Z</time>
      </trkpt>
      <trkpt lat="43.63044" lon="7.04107">
        <ele>197.39999389648</ele>
        <time>2011-03-30T10:32:24.000Z</time>
      </trkpt>
      <trkpt lat="43.63036" lon="7.04092">
        <ele>196.60000610352</ele>
        <time>2011-03-30T10:32:28.000Z</time>
      </trkpt>
      <trkpt lat="43.63031" lon="7.04084">
        <ele>196</ele>
        <time>2011-03-30T10:32:30.000Z</time>
      </trkpt>
      <trkpt lat="43.63013" lon="7.04074">
        <ele>196.19999694824</ele>
        <time>2011-03-30T10:32:35.000Z</time>
      </trkpt>
      <trkpt lat="43.62995" lon="7.04068">
        <ele>196.39999389648</ele>
        <time>2011-03-30T10:32:39.000Z</time>
      </trkpt>
      <trkpt lat="43.62984" lon="7.04071">
        <ele>196</ele>
        <time>2011-03-30T10:32:41.000Z</time>
      </trkpt>
      <trkpt lat="43.62965" lon="7.04066">
        <ele>194.80000305176</ele>
        <time>2011-03-30T10:32:45.000Z</time>
      </trkpt>
      <trkpt lat="43.6296" lon="7.04061">
        <ele>194.60000610352</ele>
        <time>2011-03-30T10:32:46.000Z</time>
      </trkpt>
      <trkpt lat="43.62952" lon="7.04052">
        <ele>194.19999694824</ele>
        <time>2011-03-30T10:32:48.000Z</time>
      </trkpt>
      <trkpt lat="43.62949" lon="7.04045">
        <ele>194.19999694824</ele>
        <time>2011-03-30T10:32:52.000Z</time>
      </trkpt>
      <trkpt lat="43.62946" lon="7.04048">
        <ele>194</ele>
        <time>2011-03-30T10:32:56.000Z</time>
      </trkpt>
      <trkpt lat="43.62946" lon="7.04049">
        <ele>194</ele>
        <time>2011-03-30T10:32:57.000Z</time>
      </trkpt>
      <trkpt lat="43.62947" lon="7.04053">
        <ele>194</ele>
        <time>2011-03-30T10:33:03.000Z</time>
      </trkpt>
      <trkpt lat="43.62949" lon="7.04055">
        <ele>194.19999694824</ele>
        <time>2011-03-30T10:33:12.000Z</time>
      </trkpt>
      <trkpt lat="43.62948" lon="7.04055">
        <ele>194.19999694824</ele>
        <time>2011-03-30T10:33:17.000Z</time>
      </trkpt>
      <trkpt lat="43.62949" lon="7.04054">
        <ele>194.19999694824</ele>
        <time>2011-03-30T10:33:26.000Z</time>
      </trkpt>
      <trkpt lat="43.62953" lon="7.04056">
        <ele>194.19999694824</ele>
        <time>2011-03-30T10:33:38.000Z</time>
      </trkpt>
      <trkpt lat="43.62951" lon="7.04052">
        <ele>194.19999694824</ele>
        <time>2011-03-30T10:33:40.000Z</time>
      </trkpt>
      <trkpt lat="43.62944" lon="7.04039">
        <ele>194</ele>
        <time>2011-03-30T10:33:45.000Z</time>
      </trkpt>
      <trkpt lat="43.6294" lon="7.04022">
        <ele>194.19999694824</ele>
        <time>2011-03-30T10:33:49.000Z</time>
      </trkpt>
      <trkpt lat="43.62944" lon="7.04004">
        <ele>194.19999694824</ele>
        <time>2011-03-30T10:33:53.000Z</time>
      </trkpt>
      <trkpt lat="43.62942" lon="7.03987">
        <ele>194.60000610352</ele>
        <time>2011-03-30T10:33:57.000Z</time>
      </trkpt>
      <trkpt lat="43.6293" lon="7.03961">
        <ele>196.39999389648</ele>
        <time>2011-03-30T10:34:04.000Z</time>
      </trkpt>
      <trkpt lat="43.6292" lon="7.03946">
        <ele>198.19999694824</ele>
        <time>2011-03-30T10:34:09.000Z</time>
      </trkpt>
      <trkpt lat="43.62912" lon="7.03925">
        <ele>199.19999694824</ele>
        <time>2011-03-30T10:34:15.000Z</time>
      </trkpt>
      <trkpt lat="43.62914" lon="7.03897">
        <ele>200.60000610352</ele>
        <time>2011-03-30T10:34:22.000Z</time>
      </trkpt>
      <trkpt lat="43.62916" lon="7.03868">
        <ele>202.19999694824</ele>
        <time>2011-03-30T10:34:29.000Z</time>
      </trkpt>
      <trkpt lat="43.62915" lon="7.03841">
        <ele>203.39999389648</ele>
        <time>2011-03-30T10:34:35.000Z</time>
      </trkpt>
      <trkpt lat="43.62917" lon="7.03822">
        <ele>204.39999389648</ele>
        <time>2011-03-30T10:34:39.000Z</time>
      </trkpt>
      <trkpt lat="43.62927" lon="7.03808">
        <ele>204.19999694824</ele>
        <time>2011-03-30T10:34:43.000Z</time>
      </trkpt>
      <trkpt lat="43.62937" lon="7.03797">
        <ele>203.60000610352</ele>
        <time>2011-03-30T10:34:47.000Z</time>
      </trkpt>
      <trkpt lat="43.62941" lon="7.03767">
        <ele>205</ele>
        <time>2011-03-30T10:34:54.000Z</time>
      </trkpt>
      <trkpt lat="43.62933" lon="7.03743">
        <ele>206.19999694824</ele>
        <time>2011-03-30T10:35:01.000Z</time>
      </trkpt>
      <trkpt lat="43.62925" lon="7.03728">
        <ele>206.19999694824</ele>
        <time>2011-03-30T10:35:06.000Z</time>
      </trkpt>
      <trkpt lat="43.62925" lon="7.03713">
        <ele>205.60000610352</ele>
        <time>2011-03-30T10:35:11.000Z</time>
      </trkpt>
      <trkpt lat="43.62928" lon="7.03709">
        <ele>205.19999694824</ele>
        <time>2011-03-30T10:35:15.000Z</time>
      </trkpt>
      <trkpt lat="43.62929" lon="7.03706">
        <ele>205</ele>
        <time>2011-03-30T10:35:28.000Z</time>
      </trkpt>
      <trkpt lat="43.62927" lon="7.03692">
        <ele>204.60000610352</ele>
        <time>2011-03-30T10:35:32.000Z</time>
      </trkpt>
      <trkpt lat="43.62916" lon="7.03677">
        <ele>205.19999694824</ele>
        <time>2011-03-30T10:35:35.000Z</time>
      </trkpt>
      <trkpt lat="43.62895" lon="7.03655">
        <ele>203</ele>
        <time>2011-03-30T10:35:39.000Z</time>
      </trkpt>
      <trkpt lat="43.62879" lon="7.03615">
        <ele>201.39999389648</ele>
        <time>2011-03-30T10:35:44.000Z</time>
      </trkpt>
      <trkpt lat="43.62871" lon="7.03605">
        <ele>201.19999694824</ele>
        <time>2011-03-30T10:35:47.000Z</time>
      </trkpt>
      <trkpt lat="43.62848" lon="7.03597">
        <ele>201.19999694824</ele>
        <time>2011-03-30T10:35:52.000Z</time>
      </trkpt>
      <trkpt lat="43.62845" lon="7.03594">
        <ele>201.39999389648</ele>
        <time>2011-03-30T10:35:53.000Z</time>
      </trkpt>
      <trkpt lat="43.62827" lon="7.03574">
        <ele>202.39999389648</ele>
        <time>2011-03-30T10:35:59.000Z</time>
      </trkpt>
      <trkpt lat="43.6283" lon="7.03575">
        <ele>202.19999694824</ele>
        <time>2011-03-30T10:36:07.000Z</time>
      </trkpt>
      <trkpt lat="43.6283" lon="7.03575">
        <ele>202.19999694824</ele>
        <time>2011-03-30T10:36:13.000Z</time>
      </trkpt>
      <trkpt lat="43.62833" lon="7.03562">
        <ele>202.39999389648</ele>
        <time>2011-03-30T10:36:17.000Z</time>
      </trkpt>
      <trkpt lat="43.62846" lon="7.03528">
        <ele>202.60000610352</ele>
        <time>2011-03-30T10:36:24.000Z</time>
      </trkpt>
      <trkpt lat="43.62861" lon="7.03498">
        <ele>202</ele>
        <time>2011-03-30T10:36:30.000Z</time>
      </trkpt>
      <trkpt lat="43.62885" lon="7.03453">
        <ele>200.19999694824</ele>
        <time>2011-03-30T10:36:39.000Z</time>
      </trkpt>
      <trkpt lat="43.629" lon="7.0343">
        <ele>198.80000305176</ele>
        <time>2011-03-30T10:36:43.000Z</time>
      </trkpt>
      <trkpt lat="43.62906" lon="7.03418">
        <ele>198</ele>
        <time>2011-03-30T10:36:45.000Z</time>
      </trkpt>
      <trkpt lat="43.62909" lon="7.03401">
        <ele>197.19999694824</ele>
        <time>2011-03-30T10:36:49.000Z</time>
      </trkpt>
      <trkpt lat="43.62908" lon="7.03398">
        <ele>197</ele>
        <time>2011-03-30T10:36:50.000Z</time>
      </trkpt>
      <trkpt lat="43.62906" lon="7.03387">
        <ele>196.80000305176</ele>
        <time>2011-03-30T10:36:56.000Z</time>
      </trkpt>
      <trkpt lat="43.62904" lon="7.03387">
        <ele>197.19999694824</ele>
        <time>2011-03-30T10:37:06.000Z</time>
      </trkpt>
      <trkpt lat="43.62901" lon="7.03379">
        <ele>197.39999389648</ele>
        <time>2011-03-30T10:37:17.000Z</time>
      </trkpt>
      <trkpt lat="43.62899" lon="7.03358">
        <ele>196.80000305176</ele>
        <time>2011-03-30T10:37:20.000Z</time>
      </trkpt>
      <trkpt lat="43.62899" lon="7.0334">
        <ele>196.39999389648</ele>
        <time>2011-03-30T10:37:22.000Z</time>
      </trkpt>
      <trkpt lat="43.62897" lon="7.03307">
        <ele>194</ele>
        <time>2011-03-30T10:37:26.000Z</time>
      </trkpt>
      <trkpt lat="43.62895" lon="7.03292">
        <ele>193</ele>
        <time>2011-03-30T10:37:28.000Z</time>
      </trkpt>
      <trkpt lat="43.62887" lon="7.03283">
        <ele>194.19999694824</ele>
        <time>2011-03-30T10:37:32.000Z</time>
      </trkpt>
      <trkpt lat="43.62878" lon="7.03273">
        <ele>195.19999694824</ele>
        <time>2011-03-30T10:37:36.000Z</time>
      </trkpt>
      <trkpt lat="43.62873" lon="7.03264">
        <ele>195.80000305176</ele>
        <time>2011-03-30T10:37:40.000Z</time>
      </trkpt>
      <trkpt lat="43.62868" lon="7.03255">
        <ele>196.60000610352</ele>
        <time>2011-03-30T10:37:43.000Z</time>
      </trkpt>
      <trkpt lat="43.62855" lon="7.03239">
        <ele>199.39999389648</ele>
        <time>2011-03-30T10:37:48.000Z</time>
      </trkpt>
      <trkpt lat="43.62851" lon="7.03233">
        <ele>200.39999389648</ele>
        <time>2011-03-30T10:37:50.000Z</time>
      </trkpt>
      <trkpt lat="43.62854" lon="7.03207">
        <ele>199.60000610352</ele>
        <time>2011-03-30T10:37:56.000Z</time>
      </trkpt>
      <trkpt lat="43.62864" lon="7.03185">
        <ele>196.19999694824</ele>
        <time>2011-03-30T10:38:01.000Z</time>
      </trkpt>
      <trkpt lat="43.62872" lon="7.03167">
        <ele>193.19999694824</ele>
        <time>2011-03-30T10:38:05.000Z</time>
      </trkpt>
      <trkpt lat="43.6288" lon="7.03149">
        <ele>189.80000305176</ele>
        <time>2011-03-30T10:38:10.000Z</time>
      </trkpt>
      <trkpt lat="43.62886" lon="7.03118">
        <ele>187</ele>
        <time>2011-03-30T10:38:15.000Z</time>
      </trkpt>
      <trkpt lat="43.62887" lon="7.03103">
        <ele>186.60000610352</ele>
        <time>2011-03-30T10:38:17.000Z</time>
      </trkpt>
      <trkpt lat="43.62883" lon="7.03074">
        <ele>187.39999389648</ele>
        <time>2011-03-30T10:38:21.000Z</time>
      </trkpt>
      <trkpt lat="43.62885" lon="7.03043">
        <ele>185.80000305176</ele>
        <time>2011-03-30T10:38:26.000Z</time>
      </trkpt>
      <trkpt lat="43.62887" lon="7.0303">
        <ele>184.60000610352</ele>
        <time>2011-03-30T10:38:28.000Z</time>
      </trkpt>
      <trkpt lat="43.62891" lon="7.0302">
        <ele>182.80000305176</ele>
        <time>2011-03-30T10:38:30.000Z</time>
      </trkpt>
      <trkpt lat="43.62895" lon="7.02993">
        <ele>180.39999389648</ele>
        <time>2011-03-30T10:38:35.000Z</time>
      </trkpt>
      <trkpt lat="43.62897" lon="7.02961">
        <ele>178.80000305176</ele>
        <time>2011-03-30T10:38:42.000Z</time>
      </trkpt>
      <trkpt lat="43.629" lon="7.02937">
        <ele>177</ele>
        <time>2011-03-30T10:38:46.000Z</time>
      </trkpt>
      <trkpt lat="43.62902" lon="7.02915">
        <ele>175.80000305176</ele>
        <time>2011-03-30T10:38:49.000Z</time>
      </trkpt>
      <trkpt lat="43.62897" lon="7.02883">
        <ele>175.39999389648</ele>
        <time>2011-03-30T10:38:54.000Z</time>
      </trkpt>
      <trkpt lat="43.62895" lon="7.02864">
        <ele>174.60000610352</ele>
        <time>2011-03-30T10:38:57.000Z</time>
      </trkpt>
      <trkpt lat="43.62895" lon="7.0284">
        <ele>173</ele>
        <time>2011-03-30T10:39:01.000Z</time>
      </trkpt>
      <trkpt lat="43.62891" lon="7.02814">
        <ele>172.80000305176</ele>
        <time>2011-03-30T10:39:05.000Z</time>
      </trkpt>
      <trkpt lat="43.62882" lon="7.02791">
        <ele>173</ele>
        <time>2011-03-30T10:39:09.000Z</time>
      </trkpt>
      <trkpt lat="43.62874" lon="7.02772">
        <ele>173</ele>
        <time>2011-03-30T10:39:14.000Z</time>
      </trkpt>
      <trkpt lat="43.62865" lon="7.02765">
        <ele>173.19999694824</ele>
        <time>2011-03-30T10:39:18.000Z</time>
      </trkpt>
      <trkpt lat="43.62865" lon="7.02767">
        <ele>173.39999389648</ele>
        <time>2011-03-30T10:39:20.000Z</time>
      </trkpt>
      <trkpt lat="43.62867" lon="7.02769">
        <ele>173.39999389648</ele>
        <time>2011-03-30T10:39:26.000Z</time>
      </trkpt>
      <trkpt lat="43.62872" lon="7.02769">
        <ele>173</ele>
        <time>2011-03-30T10:39:41.000Z</time>
      </trkpt>
      <trkpt lat="43.62869" lon="7.02762">
        <ele>172.60000610352</ele>
        <time>2011-03-30T10:39:58.000Z</time>
      </trkpt>
      <trkpt lat="43.62868" lon="7.02764">
        <ele>173</ele>
        <time>2011-03-30T10:40:19.000Z</time>
      </trkpt>
      <trkpt lat="43.6287" lon="7.02766">
        <ele>172.80000305176</ele>
        <time>2011-03-30T10:41:36.000Z</time>
      </trkpt>
      <trkpt lat="43.62867" lon="7.02763">
        <ele>173</ele>
        <time>2011-03-30T10:43:14.000Z</time>
      </trkpt>
      <trkpt lat="43.62856" lon="7.02753">
        <ele>172.80000305176</ele>
        <time>2011-03-30T10:43:21.000Z</time>
      </trkpt>
      <trkpt lat="43.62844" lon="7.0274">
        <ele>173.19999694824</ele>
        <time>2011-03-30T10:43:28.000Z</time>
      </trkpt>
      <trkpt lat="43.62828" lon="7.02725">
        <ele>175.19999694824</ele>
        <time>2011-03-30T10:43:37.000Z</time>
      </trkpt>
      <trkpt lat="43.62813" lon="7.02716">
        <ele>180</ele>
        <time>2011-03-30T10:43:45.000Z</time>
      </trkpt>
      <trkpt lat="43.62799" lon="7.02707">
        <ele>183.60000610352</ele>
        <time>2011-03-30T10:43:52.000Z</time>
      </trkpt>
      <trkpt lat="43.6278" lon="7.02689">
        <ele>187</ele>
        <time>2011-03-30T10:44:02.000Z</time>
      </trkpt>
      <trkpt lat="43.62771" lon="7.02672">
        <ele>186.19999694824</ele>
        <time>2011-03-30T10:44:09.000Z</time>
      </trkpt>
      <trkpt lat="43.62764" lon="7.02653">
        <ele>185</ele>
        <time>2011-03-30T10:44:16.000Z</time>
      </trkpt>
      <trkpt lat="43.62756" lon="7.02638">
        <ele>183.80000305176</ele>
        <time>2011-03-30T10:44:22.000Z</time>
      </trkpt>
      <trkpt lat="43.62742" lon="7.02621">
        <ele>182.80000305176</ele>
        <time>2011-03-30T10:44:30.000Z</time>
      </trkpt>
      <trkpt lat="43.62726" lon="7.0261">
        <ele>183</ele>
        <time>2011-03-30T10:44:38.000Z</time>
      </trkpt>
      <trkpt lat="43.6271" lon="7.02603">
        <ele>183.60000610352</ele>
        <time>2011-03-30T10:44:46.000Z</time>
      </trkpt>
      <trkpt lat="43.62695" lon="7.02602">
        <ele>185.19999694824</ele>
        <time>2011-03-30T10:44:53.000Z</time>
      </trkpt>
      <trkpt lat="43.62679" lon="7.02604">
        <ele>187.80000305176</ele>
        <time>2011-03-30T10:45:00.000Z</time>
      </trkpt>
      <trkpt lat="43.62661" lon="7.0261">
        <ele>191</ele>
        <time>2011-03-30T10:45:09.000Z</time>
      </trkpt>
      <trkpt lat="43.62639" lon="7.02623">
        <ele>193.60000610352</ele>
        <time>2011-03-30T10:45:19.000Z</time>
      </trkpt>
      <trkpt lat="43.62618" lon="7.02639">
        <ele>197</ele>
        <time>2011-03-30T10:45:28.000Z</time>
      </trkpt>
      <trkpt lat="43.62597" lon="7.02647">
        <ele>198.19999694824</ele>
        <time>2011-03-30T10:45:37.000Z</time>
      </trkpt>
      <trkpt lat="43.62572" lon="7.02651">
        <ele>200</ele>
        <time>2011-03-30T10:45:47.000Z</time>
      </trkpt>
      <trkpt lat="43.62561" lon="7.02651">
        <ele>201</ele>
        <time>2011-03-30T10:45:53.000Z</time>
      </trkpt>
      <trkpt lat="43.62548" lon="7.02648">
        <ele>201.60000610352</ele>
        <time>2011-03-30T10:45:59.000Z</time>
      </trkpt>
      <trkpt lat="43.6253" lon="7.02646">
        <ele>202.80000305176</ele>
        <time>2011-03-30T10:46:07.000Z</time>
      </trkpt>
      <trkpt lat="43.62514" lon="7.02646">
        <ele>204.60000610352</ele>
        <time>2011-03-30T10:46:14.000Z</time>
      </trkpt>
      <trkpt lat="43.62496" lon="7.02646">
        <ele>206.39999389648</ele>
        <time>2011-03-30T10:46:22.000Z</time>
      </trkpt>
      <trkpt lat="43.62481" lon="7.02644">
        <ele>208</ele>
        <time>2011-03-30T10:46:29.000Z</time>
      </trkpt>
      <trkpt lat="43.62461" lon="7.02639">
        <ele>209.60000610352</ele>
        <time>2011-03-30T10:46:37.000Z</time>
      </trkpt>
      <trkpt lat="43.62445" lon="7.02629">
        <ele>210</ele>
        <time>2011-03-30T10:46:44.000Z</time>
      </trkpt>
      <trkpt lat="43.62424" lon="7.02612">
        <ele>210.60000610352</ele>
        <time>2011-03-30T10:46:52.000Z</time>
      </trkpt>
      <trkpt lat="43.62407" lon="7.02587">
        <ele>209.80000305176</ele>
        <time>2011-03-30T10:46:59.000Z</time>
      </trkpt>
      <trkpt lat="43.62396" lon="7.02559">
        <ele>210.39999389648</ele>
        <time>2011-03-30T10:47:06.000Z</time>
      </trkpt>
      <trkpt lat="43.62377" lon="7.0252">
        <ele>211.80000305176</ele>
        <time>2011-03-30T10:47:16.000Z</time>
      </trkpt>
      <trkpt lat="43.6237" lon="7.02502">
        <ele>212</ele>
        <time>2011-03-30T10:47:21.000Z</time>
      </trkpt>
      <trkpt lat="43.62359" lon="7.02483">
        <ele>213.60000610352</ele>
        <time>2011-03-30T10:47:27.000Z</time>
      </trkpt>
      <trkpt lat="43.62351" lon="7.02484">
        <ele>214.39999389648</ele>
        <time>2011-03-30T10:47:31.000Z</time>
      </trkpt>
      <trkpt lat="43.62345" lon="7.02497">
        <ele>214.60000610352</ele>
        <time>2011-03-30T10:47:36.000Z</time>
      </trkpt>
      <trkpt lat="43.62345" lon="7.02516">
        <ele>215.39999389648</ele>
        <time>2011-03-30T10:47:43.000Z</time>
      </trkpt>
      <trkpt lat="43.62345" lon="7.02519">
        <ele>215.39999389648</ele>
        <time>2011-03-30T10:47:44.000Z</time>
      </trkpt>
      <trkpt lat="43.62345" lon="7.02544">
        <ele>216.60000610352</ele>
        <time>2011-03-30T10:47:53.000Z</time>
      </trkpt>
      <trkpt lat="43.62343" lon="7.02561">
        <ele>217.60000610352</ele>
        <time>2011-03-30T10:47:59.000Z</time>
      </trkpt>
      <trkpt lat="43.62343" lon="7.0259">
        <ele>219</ele>
        <time>2011-03-30T10:48:09.000Z</time>
      </trkpt>
      <trkpt lat="43.62347" lon="7.02611">
        <ele>220.19999694824</ele>
        <time>2011-03-30T10:48:16.000Z</time>
      </trkpt>
      <trkpt lat="43.62349" lon="7.02628">
        <ele>221.39999389648</ele>
        <time>2011-03-30T10:48:22.000Z</time>
      </trkpt>
      <trkpt lat="43.62353" lon="7.02651">
        <ele>223</ele>
        <time>2011-03-30T10:48:30.000Z</time>
      </trkpt>
      <trkpt lat="43.62359" lon="7.0267">
        <ele>224</ele>
        <time>2011-03-30T10:48:38.000Z</time>
      </trkpt>
      <trkpt lat="43.62366" lon="7.02682">
        <ele>224.60000610352</ele>
        <time>2011-03-30T10:48:44.000Z</time>
      </trkpt>
      <trkpt lat="43.62369" lon="7.02687">
        <ele>225</ele>
        <time>2011-03-30T10:48:51.000Z</time>
      </trkpt>
      <trkpt lat="43.62367" lon="7.02688">
        <ele>225.39999389648</ele>
        <time>2011-03-30T10:49:01.000Z</time>
      </trkpt>
      <trkpt lat="43.62369" lon="7.0269">
        <ele>225.39999389648</ele>
        <time>2011-03-30T10:49:12.000Z</time>
      </trkpt>
      <trkpt lat="43.62369" lon="7.02691">
        <ele>225.39999389648</ele>
        <time>2011-03-30T10:49:22.000Z</time>
      </trkpt>
      <trkpt lat="43.62371" lon="7.02693">
        <ele>225.60000610352</ele>
        <time>2011-03-30T10:49:28.000Z</time>
      </trkpt>
      <trkpt lat="43.62388" lon="7.02692">
        <ele>224.19999694824</ele>
        <time>2011-03-30T10:49:33.000Z</time>
      </trkpt>
      <trkpt lat="43.62401" lon="7.02693">
        <ele>223.39999389648</ele>
        <time>2011-03-30T10:49:37.000Z</time>
      </trkpt>
      <trkpt lat="43.62416" lon="7.0269">
        <ele>222</ele>
        <time>2011-03-30T10:49:42.000Z</time>
      </trkpt>
      <trkpt lat="43.62421" lon="7.02692">
        <ele>221.80000305176</ele>
        <time>2011-03-30T10:49:44.000Z</time>
      </trkpt>
      <trkpt lat="43.62426" lon="7.02694">
        <ele>221.60000610352</ele>
        <time>2011-03-30T10:49:49.000Z</time>
      </trkpt>
      <trkpt lat="43.62443" lon="7.02701">
        <ele>221.19999694824</ele>
        <time>2011-03-30T10:49:53.000Z</time>
      </trkpt>
      <trkpt lat="43.62461" lon="7.02705">
        <ele>220.39999389648</ele>
        <time>2011-03-30T10:49:57.000Z</time>
      </trkpt>
      <trkpt lat="43.62469" lon="7.02708">
        <ele>220.19999694824</ele>
        <time>2011-03-30T10:49:59.000Z</time>
      </trkpt>
      <trkpt lat="43.62479" lon="7.0271">
        <ele>219.80000305176</ele>
        <time>2011-03-30T10:50:01.000Z</time>
      </trkpt>
      <trkpt lat="43.62487" lon="7.02712">
        <ele>219.60000610352</ele>
        <time>2011-03-30T10:50:03.000Z</time>
      </trkpt>
      <trkpt lat="43.62504" lon="7.02719">
        <ele>219.60000610352</ele>
        <time>2011-03-30T10:50:07.000Z</time>
      </trkpt>
      <trkpt lat="43.62527" lon="7.02718">
        <ele>218.19999694824</ele>
        <time>2011-03-30T10:50:12.000Z</time>
      </trkpt>
      <trkpt lat="43.6255" lon="7.0273">
        <ele>219.19999694824</ele>
        <time>2011-03-30T10:50:18.000Z</time>
      </trkpt>
      <trkpt lat="43.62554" lon="7.02732">
        <ele>219.39999389648</ele>
        <time>2011-03-30T10:50:19.000Z</time>
      </trkpt>
      <trkpt lat="43.62569" lon="7.02739">
        <ele>220</ele>
        <time>2011-03-30T10:50:24.000Z</time>
      </trkpt>
      <trkpt lat="43.62592" lon="7.02741">
        <ele>219.80000305176</ele>
        <time>2011-03-30T10:50:30.000Z</time>
      </trkpt>
      <trkpt lat="43.6261" lon="7.02747">
        <ele>221</ele>
        <time>2011-03-30T10:50:34.000Z</time>
      </trkpt>
      <trkpt lat="43.62619" lon="7.02748">
        <ele>221</ele>
        <time>2011-03-30T10:50:36.000Z</time>
      </trkpt>
      <trkpt lat="43.62628" lon="7.0275">
        <ele>221.39999389648</ele>
        <time>2011-03-30T10:50:38.000Z</time>
      </trkpt>
      <trkpt lat="43.6264" lon="7.02749">
        <ele>221</ele>
        <time>2011-03-30T10:50:42.000Z</time>
      </trkpt>
      <trkpt lat="43.62648" lon="7.02735">
        <ele>218.19999694824</ele>
        <time>2011-03-30T10:50:46.000Z</time>
      </trkpt>
      <trkpt lat="43.62656" lon="7.02728">
        <ele>217</ele>
        <time>2011-03-30T10:50:49.000Z</time>
      </trkpt>
      <trkpt lat="43.62662" lon="7.02727">
        <ele>216.80000305176</ele>
        <time>2011-03-30T10:50:51.000Z</time>
      </trkpt>
      <trkpt lat="43.62678" lon="7.02727">
        <ele>215</ele>
        <time>2011-03-30T10:50:57.000Z</time>
      </trkpt>
      <trkpt lat="43.62698" lon="7.02737">
        <ele>213.80000305176</ele>
        <time>2011-03-30T10:51:04.000Z</time>
      </trkpt>
      <trkpt lat="43.62709" lon="7.02747">
        <ele>214.19999694824</ele>
        <time>2011-03-30T10:51:08.000Z</time>
      </trkpt>
      <trkpt lat="43.62723" lon="7.02759">
        <ele>213.60000610352</ele>
        <time>2011-03-30T10:51:12.000Z</time>
      </trkpt>
      <trkpt lat="43.62738" lon="7.02773">
        <ele>212.60000610352</ele>
        <time>2011-03-30T10:51:16.000Z</time>
      </trkpt>
      <trkpt lat="43.62746" lon="7.02784">
        <ele>212.39999389648</ele>
        <time>2011-03-30T10:51:20.000Z</time>
      </trkpt>
      <trkpt lat="43.62751" lon="7.02795">
        <ele>212.19999694824</ele>
        <time>2011-03-30T10:51:24.000Z</time>
      </trkpt>
      <trkpt lat="43.62753" lon="7.02792">
        <ele>211.19999694824</ele>
        <time>2011-03-30T10:51:28.000Z</time>
      </trkpt>
      <trkpt lat="43.62757" lon="7.02792">
        <ele>209.80000305176</ele>
        <time>2011-03-30T10:51:34.000Z</time>
      </trkpt>
      <trkpt lat="43.62757" lon="7.02793">
        <ele>209.60000610352</ele>
        <time>2011-03-30T10:51:44.000Z</time>
      </trkpt>
      <trkpt lat="43.62758" lon="7.02792">
        <ele>209.19999694824</ele>
        <time>2011-03-30T10:51:52.000Z</time>
      </trkpt>
      <trkpt lat="43.6276" lon="7.02793">
        <ele>208.80000305176</ele>
        <time>2011-03-30T10:52:04.000Z</time>
      </trkpt>
      <trkpt lat="43.6276" lon="7.02793">
        <ele>208.60000610352</ele>
        <time>2011-03-30T10:52:32.000Z</time>
      </trkpt>
      <trkpt lat="43.6276" lon="7.02792">
        <ele>208.39999389648</ele>
        <time>2011-03-30T10:52:49.000Z</time>
      </trkpt>
      <trkpt lat="43.62757" lon="7.02789">
        <ele>209.19999694824</ele>
        <time>2011-03-30T10:53:00.000Z</time>
      </trkpt>
      <trkpt lat="43.62757" lon="7.02792">
        <ele>209.80000305176</ele>
        <time>2011-03-30T10:53:08.000Z</time>
      </trkpt>
      <trkpt lat="43.62757" lon="7.02794">
        <ele>210</ele>
        <time>2011-03-30T10:53:13.000Z</time>
      </trkpt>
      <trkpt lat="43.62758" lon="7.02791">
        <ele>209.39999389648</ele>
        <time>2011-03-30T10:53:22.000Z</time>
      </trkpt>
      <trkpt lat="43.62757" lon="7.02795">
        <ele>210</ele>
        <time>2011-03-30T10:53:32.000Z</time>
      </trkpt>
      <trkpt lat="43.62763" lon="7.02806">
        <ele>208.60000610352</ele>
        <time>2011-03-30T10:53:38.000Z</time>
      </trkpt>
      <trkpt lat="43.62764" lon="7.0281">
        <ele>208.60000610352</ele>
        <time>2011-03-30T10:53:39.000Z</time>
      </trkpt>
      <trkpt lat="43.62769" lon="7.02836">
        <ele>209.19999694824</ele>
        <time>2011-03-30T10:53:44.000Z</time>
      </trkpt>
      <trkpt lat="43.62775" lon="7.0285">
        <ele>208.60000610352</ele>
        <time>2011-03-30T10:53:47.000Z</time>
      </trkpt>
      <trkpt lat="43.6278" lon="7.02849">
        <ele>206.60000610352</ele>
        <time>2011-03-30T10:53:52.000Z</time>
      </trkpt>
      <trkpt lat="43.62782" lon="7.02848">
        <ele>205.80000305176</ele>
        <time>2011-03-30T10:53:57.000Z</time>
      </trkpt>
      <trkpt lat="43.62786" lon="7.0285">
        <ele>204.80000305176</ele>
        <time>2011-03-30T10:54:07.000Z</time>
      </trkpt>
      <trkpt lat="43.62792" lon="7.02847">
        <ele>202.19999694824</ele>
        <time>2011-03-30T10:54:11.000Z</time>
      </trkpt>
      <trkpt lat="43.62794" lon="7.0285">
        <ele>201.80000305176</ele>
        <time>2011-03-30T10:54:16.000Z</time>
      </trkpt>
      <trkpt lat="43.628" lon="7.02854">
        <ele>200.60000610352</ele>
        <time>2011-03-30T10:55:06.000Z</time>
      </trkpt>
      <trkpt lat="43.62797" lon="7.02853">
        <ele>201.19999694824</ele>
        <time>2011-03-30T10:55:25.000Z</time>
      </trkpt>
      <trkpt lat="43.6281" lon="7.02853">
        <ele>197</ele>
        <time>2011-03-30T10:55:30.000Z</time>
      </trkpt>
      <trkpt lat="43.62818" lon="7.02865">
        <ele>195.80000305176</ele>
        <time>2011-03-30T10:55:34.000Z</time>
      </trkpt>
      <trkpt lat="43.62825" lon="7.02872">
        <ele>194.60000610352</ele>
        <time>2011-03-30T10:55:37.000Z</time>
      </trkpt>
      <trkpt lat="43.62828" lon="7.02866">
        <ele>192.80000305176</ele>
        <time>2011-03-30T10:55:41.000Z</time>
      </trkpt>
      <trkpt lat="43.62829" lon="7.02866">
        <ele>192.39999389648</ele>
        <time>2011-03-30T10:55:42.000Z</time>
      </trkpt>
      <trkpt lat="43.62847" lon="7.02873">
        <ele>188.39999389648</ele>
        <time>2011-03-30T10:55:47.000Z</time>
      </trkpt>
      <trkpt lat="43.62853" lon="7.02875">
        <ele>186.80000305176</ele>
        <time>2011-03-30T10:55:49.000Z</time>
      </trkpt>
      <trkpt lat="43.62864" lon="7.0286">
        <ele>182.39999389648</ele>
        <time>2011-03-30T10:55:53.000Z</time>
      </trkpt>
      <trkpt lat="43.62858" lon="7.02845">
        <ele>182.19999694824</ele>
        <time>2011-03-30T10:55:57.000Z</time>
      </trkpt>
      <trkpt lat="43.62854" lon="7.02837">
        <ele>181.80000305176</ele>
        <time>2011-03-30T10:55:59.000Z</time>
      </trkpt>
      <trkpt lat="43.62857" lon="7.0281">
        <ele>178.39999389648</ele>
        <time>2011-03-30T10:56:04.000Z</time>
      </trkpt>
      <trkpt lat="43.62856" lon="7.02799">
        <ele>177.60000610352</ele>
        <time>2011-03-30T10:56:08.000Z</time>
      </trkpt>
      <trkpt lat="43.62861" lon="7.02785">
        <ele>175.39999389648</ele>
        <time>2011-03-30T10:56:13.000Z</time>
      </trkpt>
      <trkpt lat="43.62865" lon="7.02777">
        <ele>174.19999694824</ele>
        <time>2011-03-30T10:56:16.000Z</time>
      </trkpt>
      <trkpt lat="43.62867" lon="7.02764">
        <ele>173</ele>
        <time>2011-03-30T10:56:21.000Z</time>
      </trkpt>
      <trkpt lat="43.62869" lon="7.02765">
        <ele>173</ele>
        <time>2011-03-30T10:56:30.000Z</time>
      </trkpt>
      <trkpt lat="43.62872" lon="7.02766">
        <ele>172.80000305176</ele>
        <time>2011-03-30T10:56:41.000Z</time>
      </trkpt>
      <trkpt lat="43.62871" lon="7.02768">
        <ele>172.80000305176</ele>
        <time>2011-03-30T10:56:50.000Z</time>
      </trkpt>
      <trkpt lat="43.62872" lon="7.02768">
        <ele>172.80000305176</ele>
        <time>2011-03-30T10:56:58.000Z</time>
      </trkpt>
      <trkpt lat="43.62873" lon="7.02767">
        <ele>172.60000610352</ele>
        <time>2011-03-30T10:57:08.000Z</time>
      </trkpt>
      <trkpt lat="43.62874" lon="7.02767">
        <ele>172.60000610352</ele>
        <time>2011-03-30T10:57:16.000Z</time>
      </trkpt>
      <trkpt lat="43.62871" lon="7.02768">
        <ele>173</ele>
        <time>2011-03-30T10:57:59.000Z</time>
      </trkpt>
      <trkpt lat="43.62873" lon="7.02769">
        <ele>172.80000305176</ele>
        <time>2011-03-30T10:58:12.000Z</time>
      </trkpt>
      <trkpt lat="43.62877" lon="7.02773">
        <ele>172.60000610352</ele>
        <time>2011-03-30T10:58:28.000Z</time>
      </trkpt>
      <trkpt lat="43.6288" lon="7.02771">
        <ele>172.19999694824</ele>
        <time>2011-03-30T10:58:38.000Z</time>
      </trkpt>
      <trkpt lat="43.6288" lon="7.02768">
        <ele>172.19999694824</ele>
        <time>2011-03-30T10:58:55.000Z</time>
      </trkpt>
      <trkpt lat="43.62894" lon="7.02775">
        <ele>171</ele>
        <time>2011-03-30T10:58:59.000Z</time>
      </trkpt>
      <trkpt lat="43.62918" lon="7.02792">
        <ele>168.39999389648</ele>
        <time>2011-03-30T10:59:04.000Z</time>
      </trkpt>
      <trkpt lat="43.62929" lon="7.02789">
        <ele>168.19999694824</ele>
        <time>2011-03-30T10:59:06.000Z</time>
      </trkpt>
      <trkpt lat="43.62939" lon="7.02788">
        <ele>168.19999694824</ele>
        <time>2011-03-30T10:59:08.000Z</time>
      </trkpt>
      <trkpt lat="43.62947" lon="7.02785">
        <ele>168.19999694824</ele>
        <time>2011-03-30T10:59:10.000Z</time>
      </trkpt>
      <trkpt lat="43.62963" lon="7.02775">
        <ele>168.19999694824</ele>
        <time>2011-03-30T10:59:16.000Z</time>
      </trkpt>
      <trkpt lat="43.62975" lon="7.02759">
        <ele>168.60000610352</ele>
        <time>2011-03-30T10:59:22.000Z</time>
      </trkpt>
      <trkpt lat="43.6299" lon="7.02734">
        <ele>170.39999389648</ele>
        <time>2011-03-30T10:59:31.000Z</time>
      </trkpt>
      <trkpt lat="43.63001" lon="7.02716">
        <ele>172.19999694824</ele>
        <time>2011-03-30T10:59:38.000Z</time>
      </trkpt>
      <trkpt lat="43.63012" lon="7.02699">
        <ele>173.80000305176</ele>
        <time>2011-03-30T10:59:44.000Z</time>
      </trkpt>
      <trkpt lat="43.63026" lon="7.02672">
        <ele>175.39999389648</ele>
        <time>2011-03-30T10:59:52.000Z</time>
      </trkpt>
      <trkpt lat="43.63035" lon="7.0264">
        <ele>178</ele>
        <time>2011-03-30T10:59:59.000Z</time>
      </trkpt>
      <trkpt lat="43.63049" lon="7.02603">
        <ele>179.60000610352</ele>
        <time>2011-03-30T11:00:07.000Z</time>
      </trkpt>
      <trkpt lat="43.63068" lon="7.02578">
        <ele>178.60000610352</ele>
        <time>2011-03-30T11:00:13.000Z</time>
      </trkpt>
      <trkpt lat="43.63083" lon="7.02552">
        <ele>179.80000305176</ele>
        <time>2011-03-30T11:00:17.000Z</time>
      </trkpt>
      <trkpt lat="43.63103" lon="7.02541">
        <ele>181</ele>
        <time>2011-03-30T11:00:21.000Z</time>
      </trkpt>
      <trkpt lat="43.63114" lon="7.02543">
        <ele>180.39999389648</ele>
        <time>2011-03-30T11:00:23.000Z</time>
      </trkpt>
      <trkpt lat="43.6314" lon="7.02545">
        <ele>179.39999389648</ele>
        <time>2011-03-30T11:00:29.000Z</time>
      </trkpt>
      <trkpt lat="43.63153" lon="7.02553">
        <ele>178.60000610352</ele>
        <time>2011-03-30T11:00:34.000Z</time>
      </trkpt>
      <trkpt lat="43.63164" lon="7.02574">
        <ele>177.39999389648</ele>
        <time>2011-03-30T11:00:40.000Z</time>
      </trkpt>
      <trkpt lat="43.63164" lon="7.026">
        <ele>179</ele>
        <time>2011-03-30T11:00:46.000Z</time>
      </trkpt>
      <trkpt lat="43.63156" lon="7.0262">
        <ele>180.80000305176</ele>
        <time>2011-03-30T11:00:51.000Z</time>
      </trkpt>
      <trkpt lat="43.63145" lon="7.02649">
        <ele>182.39999389648</ele>
        <time>2011-03-30T11:00:59.000Z</time>
      </trkpt>
      <trkpt lat="43.63135" lon="7.02676">
        <ele>183.39999389648</ele>
        <time>2011-03-30T11:01:07.000Z</time>
      </trkpt>
      <trkpt lat="43.63132" lon="7.02687">
        <ele>184.19999694824</ele>
        <time>2011-03-30T11:01:12.000Z</time>
      </trkpt>
      <trkpt lat="43.63129" lon="7.02698">
        <ele>185</ele>
        <time>2011-03-30T11:01:17.000Z</time>
      </trkpt>
      <trkpt lat="43.63124" lon="7.0271">
        <ele>185.39999389648</ele>
        <time>2011-03-30T11:01:22.000Z</time>
      </trkpt>
      <trkpt lat="43.63118" lon="7.02727">
        <ele>185.60000610352</ele>
        <time>2011-03-30T11:01:28.000Z</time>
      </trkpt>
      <trkpt lat="43.6311" lon="7.02752">
        <ele>186</ele>
        <time>2011-03-30T11:01:36.000Z</time>
      </trkpt>
      <trkpt lat="43.63102" lon="7.02774">
        <ele>186</ele>
        <time>2011-03-30T11:01:42.000Z</time>
      </trkpt>
      <trkpt lat="43.63095" lon="7.02798">
        <ele>186.39999389648</ele>
        <time>2011-03-30T11:01:49.000Z</time>
      </trkpt>
      <trkpt lat="43.63087" lon="7.02823">
        <ele>186.80000305176</ele>
        <time>2011-03-30T11:01:56.000Z</time>
      </trkpt>
      <trkpt lat="43.63083" lon="7.02852">
        <ele>187.39999389648</ele>
        <time>2011-03-30T11:02:04.000Z</time>
      </trkpt>
      <trkpt lat="43.63083" lon="7.02883">
        <ele>187.80000305176</ele>
        <time>2011-03-30T11:02:12.000Z</time>
      </trkpt>
      <trkpt lat="43.63085" lon="7.02907">
        <ele>189.19999694824</ele>
        <time>2011-03-30T11:02:18.000Z</time>
      </trkpt>
      <trkpt lat="43.63092" lon="7.02933">
        <ele>191.60000610352</ele>
        <time>2011-03-30T11:02:25.000Z</time>
      </trkpt>
      <trkpt lat="43.63103" lon="7.02958">
        <ele>194.80000305176</ele>
        <time>2011-03-30T11:02:32.000Z</time>
      </trkpt>
      <trkpt lat="43.63109" lon="7.0299">
        <ele>196.39999389648</ele>
        <time>2011-03-30T11:02:40.000Z</time>
      </trkpt>
      <trkpt lat="43.63113" lon="7.03015">
        <ele>197.19999694824</ele>
        <time>2011-03-30T11:02:46.000Z</time>
      </trkpt>
      <trkpt lat="43.63124" lon="7.03046">
        <ele>199.60000610352</ele>
        <time>2011-03-30T11:02:54.000Z</time>
      </trkpt>
      <trkpt lat="43.63132" lon="7.03075">
        <ele>201.19999694824</ele>
        <time>2011-03-30T11:03:01.000Z</time>
      </trkpt>
      <trkpt lat="43.63133" lon="7.03102">
        <ele>199.60000610352</ele>
        <time>2011-03-30T11:03:06.000Z</time>
      </trkpt>
      <trkpt lat="43.63133" lon="7.03126">
        <ele>197.60000610352</ele>
        <time>2011-03-30T11:03:10.000Z</time>
      </trkpt>
      <trkpt lat="43.63135" lon="7.03145">
        <ele>197.19999694824</ele>
        <time>2011-03-30T11:03:13.000Z</time>
      </trkpt>
      <trkpt lat="43.63148" lon="7.03177">
        <ele>198.39999389648</ele>
        <time>2011-03-30T11:03:19.000Z</time>
      </trkpt>
      <trkpt lat="43.63168" lon="7.03226">
        <ele>199.80000305176</ele>
        <time>2011-03-30T11:03:29.000Z</time>
      </trkpt>
      <trkpt lat="43.63177" lon="7.03272">
        <ele>197.80000305176</ele>
        <time>2011-03-30T11:03:37.000Z</time>
      </trkpt>
      <trkpt lat="43.63183" lon="7.03313">
        <ele>196</ele>
        <time>2011-03-30T11:03:45.000Z</time>
      </trkpt>
      <trkpt lat="43.63193" lon="7.03341">
        <ele>195.80000305176</ele>
        <time>2011-03-30T11:03:52.000Z</time>
      </trkpt>
      <trkpt lat="43.63199" lon="7.03339">
        <ele>197.19999694824</ele>
        <time>2011-03-30T11:03:56.000Z</time>
      </trkpt>
      <trkpt lat="43.63199" lon="7.03332">
        <ele>198</ele>
        <time>2011-03-30T11:03:58.000Z</time>
      </trkpt>
      <trkpt lat="43.63197" lon="7.03307">
        <ele>199.60000610352</ele>
        <time>2011-03-30T11:04:05.000Z</time>
      </trkpt>
      <trkpt lat="43.63198" lon="7.03289">
        <ele>201.19999694824</ele>
        <time>2011-03-30T11:04:10.000Z</time>
      </trkpt>
      <trkpt lat="43.63199" lon="7.03267">
        <ele>203.39999389648</ele>
        <time>2011-03-30T11:04:16.000Z</time>
      </trkpt>
      <trkpt lat="43.63207" lon="7.03266">
        <ele>205.19999694824</ele>
        <time>2011-03-30T11:04:20.000Z</time>
      </trkpt>
      <trkpt lat="43.63209" lon="7.03272">
        <ele>205.39999389648</ele>
        <time>2011-03-30T11:04:22.000Z</time>
      </trkpt>
      <trkpt lat="43.63215" lon="7.03291">
        <ele>205</ele>
        <time>2011-03-30T11:04:28.000Z</time>
      </trkpt>
      <trkpt lat="43.63226" lon="7.03304">
        <ele>206.39999389648</ele>
        <time>2011-03-30T11:04:34.000Z</time>
      </trkpt>
      <trkpt lat="43.63239" lon="7.03308">
        <ele>209</ele>
        <time>2011-03-30T11:04:40.000Z</time>
      </trkpt>
      <trkpt lat="43.63253" lon="7.03299">
        <ele>212.19999694824</ele>
        <time>2011-03-30T11:04:47.000Z</time>
      </trkpt>
      <trkpt lat="43.63266" lon="7.03286">
        <ele>213.80000305176</ele>
        <time>2011-03-30T11:04:54.000Z</time>
      </trkpt>
      <trkpt lat="43.63279" lon="7.03272">
        <ele>215.60000610352</ele>
        <time>2011-03-30T11:05:01.000Z</time>
      </trkpt>
      <trkpt lat="43.63294" lon="7.03257">
        <ele>217.80000305176</ele>
        <time>2011-03-30T11:05:08.000Z</time>
      </trkpt>
      <trkpt lat="43.63304" lon="7.03244">
        <ele>219.39999389648</ele>
        <time>2011-03-30T11:05:13.000Z</time>
      </trkpt>
      <trkpt lat="43.63316" lon="7.03236">
        <ele>220.60000610352</ele>
        <time>2011-03-30T11:05:18.000Z</time>
      </trkpt>
      <trkpt lat="43.6333" lon="7.03226">
        <ele>222.19999694824</ele>
        <time>2011-03-30T11:05:24.000Z</time>
      </trkpt>
      <trkpt lat="43.6335" lon="7.03206">
        <ele>222.39999389648</ele>
        <time>2011-03-30T11:05:32.000Z</time>
      </trkpt>
      <trkpt lat="43.63368" lon="7.03187">
        <ele>222.19999694824</ele>
        <time>2011-03-30T11:05:39.000Z</time>
      </trkpt>
      <trkpt lat="43.63386" lon="7.03164">
        <ele>222.39999389648</ele>
        <time>2011-03-30T11:05:46.000Z</time>
      </trkpt>
      <trkpt lat="43.63398" lon="7.03144">
        <ele>222.19999694824</ele>
        <time>2011-03-30T11:05:51.000Z</time>
      </trkpt>
      <trkpt lat="43.63404" lon="7.03117">
        <ele>223.19999694824</ele>
        <time>2011-03-30T11:05:57.000Z</time>
      </trkpt>
      <trkpt lat="43.63413" lon="7.03086">
        <ele>224.19999694824</ele>
        <time>2011-03-30T11:06:04.000Z</time>
      </trkpt>
      <trkpt lat="43.63415" lon="7.03057">
        <ele>224.60000610352</ele>
        <time>2011-03-30T11:06:10.000Z</time>
      </trkpt>
      <trkpt lat="43.63416" lon="7.03018">
        <ele>225.39999389648</ele>
        <time>2011-03-30T11:06:18.000Z</time>
      </trkpt>
      <trkpt lat="43.63418" lon="7.02989">
        <ele>225.60000610352</ele>
        <time>2011-03-30T11:06:24.000Z</time>
      </trkpt>
      <trkpt lat="43.6342" lon="7.02968">
        <ele>225.19999694824</ele>
        <time>2011-03-30T11:06:29.000Z</time>
      </trkpt>
      <trkpt lat="43.6342" lon="7.02966">
        <ele>225</ele>
        <time>2011-03-30T11:06:30.000Z</time>
      </trkpt>
      <trkpt lat="43.63421" lon="7.02966">
        <ele>224.80000305176</ele>
        <time>2011-03-30T11:06:36.000Z</time>
      </trkpt>
      <trkpt lat="43.6342" lon="7.0297">
        <ele>225</ele>
        <time>2011-03-30T11:06:43.000Z</time>
      </trkpt>
      <trkpt lat="43.6342" lon="7.02975">
        <ele>225</ele>
        <time>2011-03-30T11:06:47.000Z</time>
      </trkpt>
      <trkpt lat="43.63421" lon="7.02974">
        <ele>224.80000305176</ele>
        <time>2011-03-30T11:06:51.000Z</time>
      </trkpt>
      <trkpt lat="43.63422" lon="7.0297">
        <ele>224.60000610352</ele>
        <time>2011-03-30T11:06:58.000Z</time>
      </trkpt>
      <trkpt lat="43.63422" lon="7.02969">
        <ele>224.60000610352</ele>
        <time>2011-03-30T11:06:59.000Z</time>
      </trkpt>
      <trkpt lat="43.63416" lon="7.02964">
        <ele>226</ele>
        <time>2011-03-30T11:07:06.000Z</time>
      </trkpt>
      <trkpt lat="43.63419" lon="7.02965">
        <ele>225.39999389648</ele>
        <time>2011-03-30T11:07:17.000Z</time>
      </trkpt>
      <trkpt lat="43.63422" lon="7.02962">
        <ele>224.60000610352</ele>
        <time>2011-03-30T11:07:21.000Z</time>
      </trkpt>
      <trkpt lat="43.63434" lon="7.02952">
        <ele>221.80000305176</ele>
        <time>2011-03-30T11:07:26.000Z</time>
      </trkpt>
      <trkpt lat="43.63439" lon="7.02935">
        <ele>220.39999389648</ele>
        <time>2011-03-30T11:07:30.000Z</time>
      </trkpt>
      <trkpt lat="43.63446" lon="7.02909">
        <ele>218.60000610352</ele>
        <time>2011-03-30T11:07:35.000Z</time>
      </trkpt>
      <trkpt lat="43.63445" lon="7.02884">
        <ele>217.39999389648</ele>
        <time>2011-03-30T11:07:39.000Z</time>
      </trkpt>
      <trkpt lat="43.63445" lon="7.02878">
        <ele>217</ele>
        <time>2011-03-30T11:07:40.000Z</time>
      </trkpt>
      <trkpt lat="43.63448" lon="7.0286">
        <ele>215.60000610352</ele>
        <time>2011-03-30T11:07:43.000Z</time>
      </trkpt>
      <trkpt lat="43.6345" lon="7.02857">
        <ele>215</ele>
        <time>2011-03-30T11:07:48.000Z</time>
      </trkpt>
      <trkpt lat="43.63452" lon="7.02852">
        <ele>214</ele>
        <time>2011-03-30T11:07:53.000Z</time>
      </trkpt>
      <trkpt lat="43.63453" lon="7.02848">
        <ele>213.80000305176</ele>
        <time>2011-03-30T11:08:00.000Z</time>
      </trkpt>
      <trkpt lat="43.63457" lon="7.02849">
        <ele>213</ele>
        <time>2011-03-30T11:08:09.000Z</time>
      </trkpt>
      <trkpt lat="43.63461" lon="7.02847">
        <ele>212</ele>
        <time>2011-03-30T11:08:33.000Z</time>
      </trkpt>
      <trkpt lat="43.63456" lon="7.0284">
        <ele>212.80000305176</ele>
        <time>2011-03-30T11:08:40.000Z</time>
      </trkpt>
      <trkpt lat="43.63448" lon="7.0282">
        <ele>214</ele>
        <time>2011-03-30T11:08:44.000Z</time>
      </trkpt>
      <trkpt lat="43.63442" lon="7.02785">
        <ele>214.60000610352</ele>
        <time>2011-03-30T11:08:49.000Z</time>
      </trkpt>
      <trkpt lat="43.63451" lon="7.02771">
        <ele>212.80000305176</ele>
        <time>2011-03-30T11:08:53.000Z</time>
      </trkpt>
      <trkpt lat="43.63464" lon="7.02757">
        <ele>210.60000610352</ele>
        <time>2011-03-30T11:08:57.000Z</time>
      </trkpt>
      <trkpt lat="43.63475" lon="7.02755">
        <ele>208.80000305176</ele>
        <time>2011-03-30T11:09:01.000Z</time>
      </trkpt>
      <trkpt lat="43.6348" lon="7.0276">
        <ele>207.80000305176</ele>
        <time>2011-03-30T11:09:03.000Z</time>
      </trkpt>
      <trkpt lat="43.63494" lon="7.02766">
        <ele>205.39999389648</ele>
        <time>2011-03-30T11:09:06.000Z</time>
      </trkpt>
      <trkpt lat="43.63514" lon="7.02755">
        <ele>202</ele>
        <time>2011-03-30T11:09:10.000Z</time>
      </trkpt>
      <trkpt lat="43.63531" lon="7.02752">
        <ele>198.80000305176</ele>
        <time>2011-03-30T11:09:13.000Z</time>
      </trkpt>
      <trkpt lat="43.63553" lon="7.02724">
        <ele>197.39999389648</ele>
        <time>2011-03-30T11:09:18.000Z</time>
      </trkpt>
      <trkpt lat="43.63559" lon="7.02714">
        <ele>197.39999389648</ele>
        <time>2011-03-30T11:09:20.000Z</time>
      </trkpt>
      <trkpt lat="43.63574" lon="7.027">
        <ele>196.39999389648</ele>
        <time>2011-03-30T11:09:23.000Z</time>
      </trkpt>
      <trkpt lat="43.63588" lon="7.02676">
        <ele>197</ele>
        <time>2011-03-30T11:09:26.000Z</time>
      </trkpt>
      <trkpt lat="43.63598" lon="7.02653">
        <ele>197.39999389648</ele>
        <time>2011-03-30T11:09:30.000Z</time>
      </trkpt>
      <trkpt lat="43.636" lon="7.02641">
        <ele>197.39999389648</ele>
        <time>2011-03-30T11:09:35.000Z</time>
      </trkpt>
      <trkpt lat="43.63597" lon="7.02642">
        <ele>197.80000305176</ele>
        <time>2011-03-30T11:09:58.000Z</time>
      </trkpt>
      <trkpt lat="43.63596" lon="7.02642">
        <ele>197.80000305176</ele>
        <time>2011-03-30T11:10:07.000Z</time>
      </trkpt>
      <trkpt lat="43.63599" lon="7.02641">
        <ele>197.60000610352</ele>
        <time>2011-03-30T11:10:14.000Z</time>
      </trkpt>
      <trkpt lat="43.63602" lon="7.02641">
        <ele>197.19999694824</ele>
        <time>2011-03-30T11:10:26.000Z</time>
      </trkpt>
      <trkpt lat="43.63603" lon="7.02639">
        <ele>197.19999694824</ele>
        <time>2011-03-30T11:10:39.000Z</time>
      </trkpt>
      <trkpt lat="43.6361" lon="7.02625">
        <ele>197</ele>
        <time>2011-03-30T11:10:43.000Z</time>
      </trkpt>
      <trkpt lat="43.63621" lon="7.02616">
        <ele>196.39999389648</ele>
        <time>2011-03-30T11:10:46.000Z</time>
      </trkpt>
      <trkpt lat="43.63626" lon="7.02615">
        <ele>196</ele>
        <time>2011-03-30T11:10:47.000Z</time>
      </trkpt>
      <trkpt lat="43.6364" lon="7.02632">
        <ele>193.80000305176</ele>
        <time>2011-03-30T11:10:51.000Z</time>
      </trkpt>
      <trkpt lat="43.63647" lon="7.02656">
        <ele>191.19999694824</ele>
        <time>2011-03-30T11:10:54.000Z</time>
      </trkpt>
      <trkpt lat="43.63662" lon="7.0268">
        <ele>185.60000610352</ele>
        <time>2011-03-30T11:10:58.000Z</time>
      </trkpt>
      <trkpt lat="43.63674" lon="7.02675">
        <ele>184.80000305176</ele>
        <time>2011-03-30T11:11:01.000Z</time>
      </trkpt>
      <trkpt lat="43.6368" lon="7.0267">
        <ele>185.19999694824</ele>
        <time>2011-03-30T11:11:02.000Z</time>
      </trkpt>
      <trkpt lat="43.63704" lon="7.02651">
        <ele>184.60000610352</ele>
        <time>2011-03-30T11:11:06.000Z</time>
      </trkpt>
      <trkpt lat="43.63738" lon="7.0264">
        <ele>182.19999694824</ele>
        <time>2011-03-30T11:11:11.000Z</time>
      </trkpt>
      <trkpt lat="43.63756" lon="7.0263">
        <ele>181.60000610352</ele>
        <time>2011-03-30T11:11:15.000Z</time>
      </trkpt>
      <trkpt lat="43.63762" lon="7.02628">
        <ele>180.80000305176</ele>
        <time>2011-03-30T11:11:16.000Z</time>
      </trkpt>
      <trkpt lat="43.63772" lon="7.02625">
        <ele>179.19999694824</ele>
        <time>2011-03-30T11:11:18.000Z</time>
      </trkpt>
      <trkpt lat="43.63793" lon="7.02609">
        <ele>177.60000610352</ele>
        <time>2011-03-30T11:11:22.000Z</time>
      </trkpt>
      <trkpt lat="43.63807" lon="7.02601">
        <ele>175.80000305176</ele>
        <time>2011-03-30T11:11:25.000Z</time>
      </trkpt>
      <trkpt lat="43.63817" lon="7.02612">
        <ele>171.60000610352</ele>
        <time>2011-03-30T11:11:30.000Z</time>
      </trkpt>
      <trkpt lat="43.63814" lon="7.02624">
        <ele>170.80000305176</ele>
        <time>2011-03-30T11:11:34.000Z</time>
      </trkpt>
      <trkpt lat="43.63809" lon="7.02627">
        <ele>171.19999694824</ele>
        <time>2011-03-30T11:11:40.000Z</time>
      </trkpt>
      <trkpt lat="43.63811" lon="7.02628">
        <ele>170.80000305176</ele>
        <time>2011-03-30T11:11:51.000Z</time>
      </trkpt>
      <trkpt lat="43.63811" lon="7.0263">
        <ele>170.39999389648</ele>
        <time>2011-03-30T11:12:03.000Z</time>
      </trkpt>
      <trkpt lat="43.63806" lon="7.02634">
        <ele>170.80000305176</ele>
        <time>2011-03-30T11:12:30.000Z</time>
      </trkpt>
      <trkpt lat="43.63797" lon="7.0264">
        <ele>171.39999389648</ele>
        <time>2011-03-30T11:12:35.000Z</time>
      </trkpt>
      <trkpt lat="43.6378" lon="7.02646">
        <ele>173.60000610352</ele>
        <time>2011-03-30T11:12:43.000Z</time>
      </trkpt>
      <trkpt lat="43.6376" lon="7.02654">
        <ele>176</ele>
        <time>2011-03-30T11:12:51.000Z</time>
      </trkpt>
      <trkpt lat="43.63744" lon="7.02657">
        <ele>177.80000305176</ele>
        <time>2011-03-30T11:12:57.000Z</time>
      </trkpt>
      <trkpt lat="43.63721" lon="7.02663">
        <ele>180.19999694824</ele>
        <time>2011-03-30T11:13:06.000Z</time>
      </trkpt>
      <trkpt lat="43.63704" lon="7.0267">
        <ele>181.39999389648</ele>
        <time>2011-03-30T11:13:13.000Z</time>
      </trkpt>
      <trkpt lat="43.63689" lon="7.02681">
        <ele>181.19999694824</ele>
        <time>2011-03-30T11:13:20.000Z</time>
      </trkpt>
      <trkpt lat="43.63667" lon="7.02696">
        <ele>181</ele>
        <time>2011-03-30T11:13:30.000Z</time>
      </trkpt>
      <trkpt lat="43.63652" lon="7.02699">
        <ele>183.19999694824</ele>
        <time>2011-03-30T11:13:36.000Z</time>
      </trkpt>
      <trkpt lat="43.63642" lon="7.02686">
        <ele>187.39999389648</ele>
        <time>2011-03-30T11:13:41.000Z</time>
      </trkpt>
      <trkpt lat="43.63633" lon="7.02653">
        <ele>193.19999694824</ele>
        <time>2011-03-30T11:13:50.000Z</time>
      </trkpt>
      <trkpt lat="43.63624" lon="7.02635">
        <ele>195.19999694824</ele>
        <time>2011-03-30T11:13:56.000Z</time>
      </trkpt>
      <trkpt lat="43.63618" lon="7.02631">
        <ele>196</ele>
        <time>2011-03-30T11:14:01.000Z</time>
      </trkpt>
      <trkpt lat="43.63616" lon="7.02647">
        <ele>195.39999389648</ele>
        <time>2011-03-30T11:14:05.000Z</time>
      </trkpt>
      <trkpt lat="43.63615" lon="7.02651">
        <ele>195.39999389648</ele>
        <time>2011-03-30T11:14:06.000Z</time>
      </trkpt>
      <trkpt lat="43.63608" lon="7.02671">
        <ele>195</ele>
        <time>2011-03-30T11:14:12.000Z</time>
      </trkpt>
      <trkpt lat="43.63597" lon="7.02682">
        <ele>195</ele>
        <time>2011-03-30T11:14:18.000Z</time>
      </trkpt>
      <trkpt lat="43.63586" lon="7.02704">
        <ele>193.80000305176</ele>
        <time>2011-03-30T11:14:26.000Z</time>
      </trkpt>
      <trkpt lat="43.63576" lon="7.02724">
        <ele>193.39999389648</ele>
        <time>2011-03-30T11:14:33.000Z</time>
      </trkpt>
      <trkpt lat="43.63559" lon="7.02747">
        <ele>193.80000305176</ele>
        <time>2011-03-30T11:14:42.000Z</time>
      </trkpt>
      <trkpt lat="43.63541" lon="7.02759">
        <ele>196.39999389648</ele>
        <time>2011-03-30T11:14:49.000Z</time>
      </trkpt>
      <trkpt lat="43.63522" lon="7.02776">
        <ele>199.60000610352</ele>
        <time>2011-03-30T11:14:56.000Z</time>
      </trkpt>
      <trkpt lat="43.63506" lon="7.02785">
        <ele>202.60000610352</ele>
        <time>2011-03-30T11:15:01.000Z</time>
      </trkpt>
      <trkpt lat="43.63494" lon="7.02803">
        <ele>204.60000610352</ele>
        <time>2011-03-30T11:15:06.000Z</time>
      </trkpt>
      <trkpt lat="43.63496" lon="7.02823">
        <ele>204</ele>
        <time>2011-03-30T11:15:10.000Z</time>
      </trkpt>
      <trkpt lat="43.63505" lon="7.0285">
        <ele>202.19999694824</ele>
        <time>2011-03-30T11:15:16.000Z</time>
      </trkpt>
      <trkpt lat="43.63516" lon="7.02881">
        <ele>199.80000305176</ele>
        <time>2011-03-30T11:15:23.000Z</time>
      </trkpt>
      <trkpt lat="43.6352" lon="7.02912">
        <ele>199.19999694824</ele>
        <time>2011-03-30T11:15:30.000Z</time>
      </trkpt>
      <trkpt lat="43.63519" lon="7.02941">
        <ele>199.39999389648</ele>
        <time>2011-03-30T11:15:36.000Z</time>
      </trkpt>
      <trkpt lat="43.63515" lon="7.02993">
        <ele>200</ele>
        <time>2011-03-30T11:15:46.000Z</time>
      </trkpt>
      <trkpt lat="43.63517" lon="7.03036">
        <ele>200</ele>
        <time>2011-03-30T11:15:54.000Z</time>
      </trkpt>
      <trkpt lat="43.63518" lon="7.03081">
        <ele>200.39999389648</ele>
        <time>2011-03-30T11:16:02.000Z</time>
      </trkpt>
      <trkpt lat="43.63516" lon="7.03123">
        <ele>201.19999694824</ele>
        <time>2011-03-30T11:16:10.000Z</time>
      </trkpt>
      <trkpt lat="43.63512" lon="7.03167">
        <ele>203</ele>
        <time>2011-03-30T11:16:18.000Z</time>
      </trkpt>
      <trkpt lat="43.63503" lon="7.03218">
        <ele>204</ele>
        <time>2011-03-30T11:16:27.000Z</time>
      </trkpt>
      <trkpt lat="43.635" lon="7.03228">
        <ele>204.60000610352</ele>
        <time>2011-03-30T11:16:29.000Z</time>
      </trkpt>
      <trkpt lat="43.63489" lon="7.03253">
        <ele>204.60000610352</ele>
        <time>2011-03-30T11:16:34.000Z</time>
      </trkpt>
      <trkpt lat="43.63484" lon="7.03261">
        <ele>204.19999694824</ele>
        <time>2011-03-30T11:16:36.000Z</time>
      </trkpt>
      <trkpt lat="43.63466" lon="7.03283">
        <ele>204.19999694824</ele>
        <time>2011-03-30T11:16:42.000Z</time>
      </trkpt>
      <trkpt lat="43.63452" lon="7.03294">
        <ele>204.60000610352</ele>
        <time>2011-03-30T11:16:46.000Z</time>
      </trkpt>
      <trkpt lat="43.63435" lon="7.03307">
        <ele>205.39999389648</ele>
        <time>2011-03-30T11:16:51.000Z</time>
      </trkpt>
      <trkpt lat="43.63422" lon="7.03316">
        <ele>206.19999694824</ele>
        <time>2011-03-30T11:16:55.000Z</time>
      </trkpt>
      <trkpt lat="43.63392" lon="7.03339">
        <ele>206.39999389648</ele>
        <time>2011-03-30T11:17:03.000Z</time>
      </trkpt>
      <trkpt lat="43.63382" lon="7.03348">
        <ele>206.19999694824</ele>
        <time>2011-03-30T11:17:06.000Z</time>
      </trkpt>
      <trkpt lat="43.63374" lon="7.03355">
        <ele>205.80000305176</ele>
        <time>2011-03-30T11:17:08.000Z</time>
      </trkpt>
      <trkpt lat="43.63349" lon="7.03363">
        <ele>206</ele>
        <time>2011-03-30T11:17:14.000Z</time>
      </trkpt>
      <trkpt lat="43.63326" lon="7.03367">
        <ele>206.19999694824</ele>
        <time>2011-03-30T11:17:19.000Z</time>
      </trkpt>
      <trkpt lat="43.63295" lon="7.03378">
        <ele>204.60000610352</ele>
        <time>2011-03-30T11:17:25.000Z</time>
      </trkpt>
      <trkpt lat="43.63285" lon="7.0338">
        <ele>204.19999694824</ele>
        <time>2011-03-30T11:17:27.000Z</time>
      </trkpt>
      <trkpt lat="43.63257" lon="7.03393">
        <ele>202.60000610352</ele>
        <time>2011-03-30T11:17:33.000Z</time>
      </trkpt>
      <trkpt lat="43.63238" lon="7.03397">
        <ele>199.39999389648</ele>
        <time>2011-03-30T11:17:37.000Z</time>
      </trkpt>
      <trkpt lat="43.63212" lon="7.03392">
        <ele>194.80000305176</ele>
        <time>2011-03-30T11:17:42.000Z</time>
      </trkpt>
      <trkpt lat="43.63203" lon="7.03382">
        <ele>194</ele>
        <time>2011-03-30T11:17:44.000Z</time>
      </trkpt>
      <trkpt lat="43.63194" lon="7.03366">
        <ele>193.39999389648</ele>
        <time>2011-03-30T11:17:47.000Z</time>
      </trkpt>
      <trkpt lat="43.63192" lon="7.03359">
        <ele>193.80000305176</ele>
        <time>2011-03-30T11:17:50.000Z</time>
      </trkpt>
      <trkpt lat="43.63191" lon="7.03356">
        <ele>194</ele>
        <time>2011-03-30T11:17:58.000Z</time>
      </trkpt>
      <trkpt lat="43.63191" lon="7.03354">
        <ele>194</ele>
        <time>2011-03-30T11:18:05.000Z</time>
      </trkpt>
      <trkpt lat="43.63194" lon="7.03334">
        <ele>196.80000305176</ele>
        <time>2011-03-30T11:18:13.000Z</time>
      </trkpt>
      <trkpt lat="43.63193" lon="7.03316">
        <ele>197.80000305176</ele>
        <time>2011-03-30T11:18:18.000Z</time>
      </trkpt>
      <trkpt lat="43.63193" lon="7.03298">
        <ele>199.39999389648</ele>
        <time>2011-03-30T11:18:23.000Z</time>
      </trkpt>
      <trkpt lat="43.63195" lon="7.03279">
        <ele>201.39999389648</ele>
        <time>2011-03-30T11:18:28.000Z</time>
      </trkpt>
      <trkpt lat="43.63197" lon="7.03265">
        <ele>203</ele>
        <time>2011-03-30T11:18:32.000Z</time>
      </trkpt>
      <trkpt lat="43.63205" lon="7.03265">
        <ele>204.80000305176</ele>
        <time>2011-03-30T11:18:36.000Z</time>
      </trkpt>
      <trkpt lat="43.63207" lon="7.03272">
        <ele>204.80000305176</ele>
        <time>2011-03-30T11:18:38.000Z</time>
      </trkpt>
      <trkpt lat="43.63215" lon="7.03295">
        <ele>204.60000610352</ele>
        <time>2011-03-30T11:18:45.000Z</time>
      </trkpt>
      <trkpt lat="43.63225" lon="7.03306">
        <ele>205.80000305176</ele>
        <time>2011-03-30T11:18:50.000Z</time>
      </trkpt>
      <trkpt lat="43.63236" lon="7.03309">
        <ele>208.19999694824</ele>
        <time>2011-03-30T11:18:55.000Z</time>
      </trkpt>
      <trkpt lat="43.63254" lon="7.03298">
        <ele>212.39999389648</ele>
        <time>2011-03-30T11:19:02.000Z</time>
      </trkpt>
      <trkpt lat="43.63262" lon="7.03289">
        <ele>213.39999389648</ele>
        <time>2011-03-30T11:19:06.000Z</time>
      </trkpt>
      <trkpt lat="43.63277" lon="7.03274">
        <ele>215.39999389648</ele>
        <time>2011-03-30T11:19:13.000Z</time>
      </trkpt>
      <trkpt lat="43.63293" lon="7.03259">
        <ele>217.39999389648</ele>
        <time>2011-03-30T11:19:20.000Z</time>
      </trkpt>
      <trkpt lat="43.63305" lon="7.03247">
        <ele>219.19999694824</ele>
        <time>2011-03-30T11:19:25.000Z</time>
      </trkpt>
      <trkpt lat="43.63321" lon="7.03235">
        <ele>220.80000305176</ele>
        <time>2011-03-30T11:19:31.000Z</time>
      </trkpt>
      <trkpt lat="43.63338" lon="7.0322">
        <ele>222.19999694824</ele>
        <time>2011-03-30T11:19:38.000Z</time>
      </trkpt>
      <trkpt lat="43.63354" lon="7.03204">
        <ele>222</ele>
        <time>2011-03-30T11:19:44.000Z</time>
      </trkpt>
      <trkpt lat="43.63376" lon="7.03182">
        <ele>221.80000305176</ele>
        <time>2011-03-30T11:19:52.000Z</time>
      </trkpt>
      <trkpt lat="43.63391" lon="7.03165">
        <ele>221.80000305176</ele>
        <time>2011-03-30T11:19:58.000Z</time>
      </trkpt>
      <trkpt lat="43.634" lon="7.03149">
        <ele>221.80000305176</ele>
        <time>2011-03-30T11:20:03.000Z</time>
      </trkpt>
      <trkpt lat="43.63407" lon="7.03123">
        <ele>222.60000610352</ele>
        <time>2011-03-30T11:20:09.000Z</time>
      </trkpt>
      <trkpt lat="43.63414" lon="7.03091">
        <ele>223.80000305176</ele>
        <time>2011-03-30T11:20:16.000Z</time>
      </trkpt>
      <trkpt lat="43.63418" lon="7.03069">
        <ele>224</ele>
        <time>2011-03-30T11:20:21.000Z</time>
      </trkpt>
      <trkpt lat="43.63418" lon="7.03055">
        <ele>224.19999694824</ele>
        <time>2011-03-30T11:20:26.000Z</time>
      </trkpt>
      <trkpt lat="43.63418" lon="7.03052">
        <ele>224.39999389648</ele>
        <time>2011-03-30T11:20:30.000Z</time>
      </trkpt>
      <trkpt lat="43.63418" lon="7.03055">
        <ele>224.19999694824</ele>
        <time>2011-03-30T11:20:32.000Z</time>
      </trkpt>
      <trkpt lat="43.63407" lon="7.03063">
        <ele>225.39999389648</ele>
        <time>2011-03-30T11:20:38.000Z</time>
      </trkpt>
      <trkpt lat="43.63405" lon="7.03063">
        <ele>225.80000305176</ele>
        <time>2011-03-30T11:20:39.000Z</time>
      </trkpt>
      <trkpt lat="43.63391" lon="7.0307">
        <ele>227</ele>
        <time>2011-03-30T11:20:47.000Z</time>
      </trkpt>
      <trkpt lat="43.63378" lon="7.03074">
        <ele>228.39999389648</ele>
        <time>2011-03-30T11:20:54.000Z</time>
      </trkpt>
      <trkpt lat="43.6336" lon="7.03068">
        <ele>230.60000610352</ele>
        <time>2011-03-30T11:21:03.000Z</time>
      </trkpt>
      <trkpt lat="43.63345" lon="7.03063">
        <ele>232.60000610352</ele>
        <time>2011-03-30T11:21:11.000Z</time>
      </trkpt>
      <trkpt lat="43.63335" lon="7.03053">
        <ele>234.19999694824</ele>
        <time>2011-03-30T11:21:18.000Z</time>
      </trkpt>
      <trkpt lat="43.63323" lon="7.03045">
        <ele>234.39999389648</ele>
        <time>2011-03-30T11:21:25.000Z</time>
      </trkpt>
      <trkpt lat="43.63321" lon="7.03031">
        <ele>235.19999694824</ele>
        <time>2011-03-30T11:21:32.000Z</time>
      </trkpt>
      <trkpt lat="43.63319" lon="7.03023">
        <ele>235.39999389648</ele>
        <time>2011-03-30T11:21:36.000Z</time>
      </trkpt>
      <trkpt lat="43.6332" lon="7.03017">
        <ele>235.80000305176</ele>
        <time>2011-03-30T11:21:39.000Z</time>
      </trkpt>
      <trkpt lat="43.6332" lon="7.0301">
        <ele>236.19999694824</ele>
        <time>2011-03-30T11:21:42.000Z</time>
      </trkpt>
      <trkpt lat="43.63319" lon="7.02997">
        <ele>236.60000610352</ele>
        <time>2011-03-30T11:21:47.000Z</time>
      </trkpt>
      <trkpt lat="43.63318" lon="7.02985">
        <ele>237</ele>
        <time>2011-03-30T11:21:50.000Z</time>
      </trkpt>
      <trkpt lat="43.63322" lon="7.02965">
        <ele>237.80000305176</ele>
        <time>2011-03-30T11:21:55.000Z</time>
      </trkpt>
      <trkpt lat="43.63324" lon="7.02942">
        <ele>238.60000610352</ele>
        <time>2011-03-30T11:22:00.000Z</time>
      </trkpt>
      <trkpt lat="43.63326" lon="7.02927">
        <ele>239.19999694824</ele>
        <time>2011-03-30T11:22:04.000Z</time>
      </trkpt>
      <trkpt lat="43.63327" lon="7.02923">
        <ele>239.39999389648</ele>
        <time>2011-03-30T11:22:05.000Z</time>
      </trkpt>
      <trkpt lat="43.63329" lon="7.02903">
        <ele>238.80000305176</ele>
        <time>2011-03-30T11:22:10.000Z</time>
      </trkpt>
      <trkpt lat="43.63338" lon="7.02881">
        <ele>236.60000610352</ele>
        <time>2011-03-30T11:22:16.000Z</time>
      </trkpt>
      <trkpt lat="43.63342" lon="7.02862">
        <ele>234.60000610352</ele>
        <time>2011-03-30T11:22:21.000Z</time>
      </trkpt>
      <trkpt lat="43.6335" lon="7.02836">
        <ele>231.39999389648</ele>
        <time>2011-03-30T11:22:26.000Z</time>
      </trkpt>
      <trkpt lat="43.63359" lon="7.02808">
        <ele>227.19999694824</ele>
        <time>2011-03-30T11:22:30.000Z</time>
      </trkpt>
      <trkpt lat="43.63374" lon="7.02771">
        <ele>222.19999694824</ele>
        <time>2011-03-30T11:22:35.000Z</time>
      </trkpt>
      <trkpt lat="43.63381" lon="7.02754">
        <ele>220.39999389648</ele>
        <time>2011-03-30T11:22:38.000Z</time>
      </trkpt>
      <trkpt lat="43.63391" lon="7.02745">
        <ele>219.19999694824</ele>
        <time>2011-03-30T11:22:43.000Z</time>
      </trkpt>
      <trkpt lat="43.63393" lon="7.02745">
        <ele>219</ele>
        <time>2011-03-30T11:22:48.000Z</time>
      </trkpt>
      <trkpt lat="43.63391" lon="7.02745">
        <ele>219.19999694824</ele>
        <time>2011-03-30T11:22:53.000Z</time>
      </trkpt>
      <trkpt lat="43.63389" lon="7.02747">
        <ele>219.39999389648</ele>
        <time>2011-03-30T11:22:57.000Z</time>
      </trkpt>
      <trkpt lat="43.63389" lon="7.02747">
        <ele>219.39999389648</ele>
        <time>2011-03-30T11:23:06.000Z</time>
      </trkpt>
      <trkpt lat="43.63391" lon="7.02746">
        <ele>219.19999694824</ele>
        <time>2011-03-30T11:23:23.000Z</time>
      </trkpt>
      <trkpt lat="43.63396" lon="7.02749">
        <ele>219.19999694824</ele>
        <time>2011-03-30T11:23:40.000Z</time>
      </trkpt>
      <trkpt lat="43.63392" lon="7.02747">
        <ele>219.19999694824</ele>
        <time>2011-03-30T11:23:54.000Z</time>
      </trkpt>
      <trkpt lat="43.6339" lon="7.02745">
        <ele>219.19999694824</ele>
        <time>2011-03-30T11:24:05.000Z</time>
      </trkpt>
      <trkpt lat="43.63391" lon="7.02746">
        <ele>219.19999694824</ele>
        <time>2011-03-30T11:24:48.000Z</time>
      </trkpt>
      <trkpt lat="43.63392" lon="7.02744">
        <ele>219</ele>
        <time>2011-03-30T11:25:02.000Z</time>
      </trkpt>
      <trkpt lat="43.63399" lon="7.02728">
        <ele>218</ele>
        <time>2011-03-30T11:25:07.000Z</time>
      </trkpt>
      <trkpt lat="43.63406" lon="7.02714">
        <ele>217.60000610352</ele>
        <time>2011-03-30T11:25:10.000Z</time>
      </trkpt>
      <trkpt lat="43.63419" lon="7.02697">
        <ele>217.60000610352</ele>
        <time>2011-03-30T11:25:14.000Z</time>
      </trkpt>
      <trkpt lat="43.63427" lon="7.0268">
        <ele>217</ele>
        <time>2011-03-30T11:25:18.000Z</time>
      </trkpt>
      <trkpt lat="43.6342" lon="7.02668">
        <ele>217.60000610352</ele>
        <time>2011-03-30T11:25:23.000Z</time>
      </trkpt>
      <trkpt lat="43.63416" lon="7.02668">
        <ele>217.80000305176</ele>
        <time>2011-03-30T11:25:24.000Z</time>
      </trkpt>
      <trkpt lat="43.63392" lon="7.02678">
        <ele>215.39999389648</ele>
        <time>2011-03-30T11:25:28.000Z</time>
      </trkpt>
      <trkpt lat="43.63382" lon="7.02681">
        <ele>214.39999389648</ele>
        <time>2011-03-30T11:25:30.000Z</time>
      </trkpt>
      <trkpt lat="43.63362" lon="7.02688">
        <ele>213.39999389648</ele>
        <time>2011-03-30T11:25:35.000Z</time>
      </trkpt>
      <trkpt lat="43.63351" lon="7.02688">
        <ele>212.39999389648</ele>
        <time>2011-03-30T11:25:37.000Z</time>
      </trkpt>
      <trkpt lat="43.63326" lon="7.02694">
        <ele>211.80000305176</ele>
        <time>2011-03-30T11:25:41.000Z</time>
      </trkpt>
      <trkpt lat="43.63296" lon="7.02698">
        <ele>211.19999694824</ele>
        <time>2011-03-30T11:25:45.000Z</time>
      </trkpt>
      <trkpt lat="43.63282" lon="7.02696">
        <ele>210.19999694824</ele>
        <time>2011-03-30T11:25:47.000Z</time>
      </trkpt>
      <trkpt lat="43.63263" lon="7.02683">
        <ele>206.80000305176</ele>
        <time>2011-03-30T11:25:51.000Z</time>
      </trkpt>
      <trkpt lat="43.63236" lon="7.02668">
        <ele>200.60000610352</ele>
        <time>2011-03-30T11:25:56.000Z</time>
      </trkpt>
      <trkpt lat="43.63225" lon="7.02664">
        <ele>198</ele>
        <time>2011-03-30T11:25:58.000Z</time>
      </trkpt>
      <trkpt lat="43.63201" lon="7.02662">
        <ele>193.39999389648</ele>
        <time>2011-03-30T11:26:02.000Z</time>
      </trkpt>
      <trkpt lat="43.63178" lon="7.02667">
        <ele>190</ele>
        <time>2011-03-30T11:26:07.000Z</time>
      </trkpt>
      <trkpt lat="43.63169" lon="7.02667">
        <ele>188.39999389648</ele>
        <time>2011-03-30T11:26:10.000Z</time>
      </trkpt>
      <trkpt lat="43.63148" lon="7.02676">
        <ele>186</ele>
        <time>2011-03-30T11:26:17.000Z</time>
      </trkpt>
      <trkpt lat="43.63135" lon="7.02678">
        <ele>183.80000305176</ele>
        <time>2011-03-30T11:26:22.000Z</time>
      </trkpt>
      <trkpt lat="43.63132" lon="7.02682">
        <ele>183.60000610352</ele>
        <time>2011-03-30T11:26:25.000Z</time>
      </trkpt>
      <trkpt lat="43.63131" lon="7.0268">
        <ele>183.19999694824</ele>
        <time>2011-03-30T11:26:33.000Z</time>
      </trkpt>
      <trkpt lat="43.63133" lon="7.02679">
        <ele>183.60000610352</ele>
        <time>2011-03-30T11:26:38.000Z</time>
      </trkpt>
      <trkpt lat="43.63134" lon="7.02679">
        <ele>183.80000305176</ele>
        <time>2011-03-30T11:26:39.000Z</time>
      </trkpt>
      <trkpt lat="43.6314" lon="7.02676">
        <ele>184.60000610352</ele>
        <time>2011-03-30T11:26:45.000Z</time>
      </trkpt>
      <trkpt lat="43.63139" lon="7.02676">
        <ele>184.19999694824</ele>
        <time>2011-03-30T11:26:51.000Z</time>
      </trkpt>
      <trkpt lat="43.6314" lon="7.02677">
        <ele>184.39999389648</ele>
        <time>2011-03-30T11:27:10.000Z</time>
      </trkpt>
      <trkpt lat="43.63139" lon="7.02681">
        <ele>185</ele>
        <time>2011-03-30T11:27:26.000Z</time>
      </trkpt>
      <trkpt lat="43.6314" lon="7.02681">
        <ele>185.19999694824</ele>
        <time>2011-03-30T11:27:38.000Z</time>
      </trkpt>
      <trkpt lat="43.6314" lon="7.0268">
        <ele>185</ele>
        <time>2011-03-30T11:27:54.000Z</time>
      </trkpt>
      <trkpt lat="43.63139" lon="7.02681">
        <ele>184.80000305176</ele>
        <time>2011-03-30T11:28:01.000Z</time>
      </trkpt>
      <trkpt lat="43.63135" lon="7.02682">
        <ele>184.19999694824</ele>
        <time>2011-03-30T11:28:08.000Z</time>
      </trkpt>
      <trkpt lat="43.63135" lon="7.02681">
        <ele>184.19999694824</ele>
        <time>2011-03-30T11:28:14.000Z</time>
      </trkpt>
      <trkpt lat="43.63133" lon="7.02678">
        <ele>183.39999389648</ele>
        <time>2011-03-30T11:28:20.000Z</time>
      </trkpt>
      <trkpt lat="43.63128" lon="7.02678">
        <ele>182.39999389648</ele>
        <time>2011-03-30T11:28:33.000Z</time>
      </trkpt>
      <trkpt lat="43.63131" lon="7.02681">
        <ele>183.39999389648</ele>
        <time>2011-03-30T11:28:38.000Z</time>
      </trkpt>
      <trkpt lat="43.63133" lon="7.02682">
        <ele>183.80000305176</ele>
        <time>2011-03-30T11:28:49.000Z</time>
      </trkpt>
      <trkpt lat="43.63133" lon="7.02682">
        <ele>183.80000305176</ele>
        <time>2011-03-30T11:28:53.000Z</time>
      </trkpt>
      <trkpt lat="43.63133" lon="7.02677">
        <ele>183.19999694824</ele>
        <time>2011-03-30T11:29:03.000Z</time>
      </trkpt>
      <trkpt lat="43.6314" lon="7.02659">
        <ele>182.39999389648</ele>
        <time>2011-03-30T11:29:09.000Z</time>
      </trkpt>
      <trkpt lat="43.63148" lon="7.02628">
        <ele>180.80000305176</ele>
        <time>2011-03-30T11:29:14.000Z</time>
      </trkpt>
      <trkpt lat="43.63148" lon="7.02621">
        <ele>180.19999694824</ele>
        <time>2011-03-30T11:29:15.000Z</time>
      </trkpt>
      <trkpt lat="43.63148" lon="7.02596">
        <ele>177.80000305176</ele>
        <time>2011-03-30T11:29:18.000Z</time>
      </trkpt>
      <trkpt lat="43.63148" lon="7.02584">
        <ele>176.60000610352</ele>
        <time>2011-03-30T11:29:20.000Z</time>
      </trkpt>
      <trkpt lat="43.63144" lon="7.02564">
        <ele>177.80000305176</ele>
        <time>2011-03-30T11:29:24.000Z</time>
      </trkpt>
      <trkpt lat="43.6314" lon="7.02544">
        <ele>179.60000610352</ele>
        <time>2011-03-30T11:29:29.000Z</time>
      </trkpt>
      <trkpt lat="43.63133" lon="7.02543">
        <ele>179.80000305176</ele>
        <time>2011-03-30T11:29:32.000Z</time>
      </trkpt>
      <trkpt lat="43.63126" lon="7.02543">
        <ele>180</ele>
        <time>2011-03-30T11:29:34.000Z</time>
      </trkpt>
      <trkpt lat="43.63098" lon="7.02541">
        <ele>181</ele>
        <time>2011-03-30T11:29:39.000Z</time>
      </trkpt>
      <trkpt lat="43.6308" lon="7.02549">
        <ele>181</ele>
        <time>2011-03-30T11:29:43.000Z</time>
      </trkpt>
      <trkpt lat="43.63078" lon="7.02554">
        <ele>180.60000610352</ele>
        <time>2011-03-30T11:29:44.000Z</time>
      </trkpt>
      <trkpt lat="43.6307" lon="7.02569">
        <ele>179.60000610352</ele>
        <time>2011-03-30T11:29:47.000Z</time>
      </trkpt>
      <trkpt lat="43.6306" lon="7.02586">
        <ele>179</ele>
        <time>2011-03-30T11:29:51.000Z</time>
      </trkpt>
      <trkpt lat="43.63048" lon="7.02592">
        <ele>180.60000610352</ele>
        <time>2011-03-30T11:29:55.000Z</time>
      </trkpt>
      <trkpt lat="43.63038" lon="7.02596">
        <ele>182</ele>
        <time>2011-03-30T11:30:00.000Z</time>
      </trkpt>
      <trkpt lat="43.63031" lon="7.02606">
        <ele>181.80000305176</ele>
        <time>2011-03-30T11:30:04.000Z</time>
      </trkpt>
      <trkpt lat="43.6303" lon="7.02601">
        <ele>182.60000610352</ele>
        <time>2011-03-30T11:30:07.000Z</time>
      </trkpt>
      <trkpt lat="43.63031" lon="7.02602">
        <ele>182.19999694824</ele>
        <time>2011-03-30T11:30:13.000Z</time>
      </trkpt>
      <trkpt lat="43.63032" lon="7.02601">
        <ele>182.39999389648</ele>
        <time>2011-03-30T11:30:18.000Z</time>
      </trkpt>
      <trkpt lat="43.63037" lon="7.02606">
        <ele>181</ele>
        <time>2011-03-30T11:30:22.000Z</time>
      </trkpt>
      <trkpt lat="43.63034" lon="7.02613">
        <ele>180.60000610352</ele>
        <time>2011-03-30T11:30:25.000Z</time>
      </trkpt>
      <trkpt lat="43.63023" lon="7.02642">
        <ele>178.80000305176</ele>
        <time>2011-03-30T11:30:31.000Z</time>
      </trkpt>
      <trkpt lat="43.63004" lon="7.02666">
        <ele>176.80000305176</ele>
        <time>2011-03-30T11:30:35.000Z</time>
      </trkpt>
      <trkpt lat="43.62991" lon="7.02685">
        <ele>174.80000305176</ele>
        <time>2011-03-30T11:30:39.000Z</time>
      </trkpt>
      <trkpt lat="43.62983" lon="7.02705">
        <ele>172.80000305176</ele>
        <time>2011-03-30T11:30:42.000Z</time>
      </trkpt>
      <trkpt lat="43.62966" lon="7.02729">
        <ele>170.39999389648</ele>
        <time>2011-03-30T11:30:47.000Z</time>
      </trkpt>
      <trkpt lat="43.62962" lon="7.02733">
        <ele>170.19999694824</ele>
        <time>2011-03-30T11:30:48.000Z</time>
      </trkpt>
      <trkpt lat="43.62954" lon="7.02743">
        <ele>169.39999389648</ele>
        <time>2011-03-30T11:30:50.000Z</time>
      </trkpt>
      <trkpt lat="43.62933" lon="7.02772">
        <ele>168.60000610352</ele>
        <time>2011-03-30T11:30:55.000Z</time>
      </trkpt>
      <trkpt lat="43.62929" lon="7.02778">
        <ele>168.39999389648</ele>
        <time>2011-03-30T11:30:56.000Z</time>
      </trkpt>
      <trkpt lat="43.62926" lon="7.02784">
        <ele>168.39999389648</ele>
        <time>2011-03-30T11:30:58.000Z</time>
      </trkpt>
      <trkpt lat="43.62917" lon="7.02785">
        <ele>168.39999389648</ele>
        <time>2011-03-30T11:31:04.000Z</time>
      </trkpt>
      <trkpt lat="43.62917" lon="7.02786">
        <ele>168.39999389648</ele>
        <time>2011-03-30T11:31:08.000Z</time>
      </trkpt>
      <trkpt lat="43.62926" lon="7.02787">
        <ele>168.39999389648</ele>
        <time>2011-03-30T11:31:13.000Z</time>
      </trkpt>
      <trkpt lat="43.62928" lon="7.02785">
        <ele>168.39999389648</ele>
        <time>2011-03-30T11:31:15.000Z</time>
      </trkpt>
      <trkpt lat="43.62921" lon="7.02785">
        <ele>168.39999389648</ele>
        <time>2011-03-30T11:31:22.000Z</time>
      </trkpt>
      <trkpt lat="43.62917" lon="7.02785">
        <ele>168.39999389648</ele>
        <time>2011-03-30T11:31:28.000Z</time>
      </trkpt>
      <trkpt lat="43.6291" lon="7.0279">
        <ele>169.39999389648</ele>
        <time>2011-03-30T11:31:39.000Z</time>
      </trkpt>
      <trkpt lat="43.62904" lon="7.02804">
        <ele>170.39999389648</ele>
        <time>2011-03-30T11:31:44.000Z</time>
      </trkpt>
      <trkpt lat="43.62903" lon="7.02817">
        <ele>170.60000610352</ele>
        <time>2011-03-30T11:31:49.000Z</time>
      </trkpt>
      <trkpt lat="43.62906" lon="7.02841">
        <ele>170.60000610352</ele>
        <time>2011-03-30T11:31:58.000Z</time>
      </trkpt>
      <trkpt lat="43.62908" lon="7.02861">
        <ele>171.19999694824</ele>
        <time>2011-03-30T11:32:05.000Z</time>
      </trkpt>
      <trkpt lat="43.6291" lon="7.02884">
        <ele>171.60000610352</ele>
        <time>2011-03-30T11:32:13.000Z</time>
      </trkpt>
      <trkpt lat="43.62913" lon="7.02911">
        <ele>172</ele>
        <time>2011-03-30T11:32:22.000Z</time>
      </trkpt>
      <trkpt lat="43.62912" lon="7.0294">
        <ele>172.80000305176</ele>
        <time>2011-03-30T11:32:31.000Z</time>
      </trkpt>
      <trkpt lat="43.62909" lon="7.02967">
        <ele>174.60000610352</ele>
        <time>2011-03-30T11:32:40.000Z</time>
      </trkpt>
      <trkpt lat="43.62902" lon="7.02999">
        <ele>177.80000305176</ele>
        <time>2011-03-30T11:32:50.000Z</time>
      </trkpt>
      <trkpt lat="43.62896" lon="7.03028">
        <ele>180.80000305176</ele>
        <time>2011-03-30T11:32:59.000Z</time>
      </trkpt>
      <trkpt lat="43.62894" lon="7.03061">
        <ele>182.39999389648</ele>
        <time>2011-03-30T11:33:09.000Z</time>
      </trkpt>
      <trkpt lat="43.62899" lon="7.03087">
        <ele>181.39999389648</ele>
        <time>2011-03-30T11:33:17.000Z</time>
      </trkpt>
      <trkpt lat="43.62903" lon="7.03121">
        <ele>180.60000610352</ele>
        <time>2011-03-30T11:33:26.000Z</time>
      </trkpt>
      <trkpt lat="43.62898" lon="7.03151">
        <ele>183.39999389648</ele>
        <time>2011-03-30T11:33:34.000Z</time>
      </trkpt>
      <trkpt lat="43.62886" lon="7.03186">
        <ele>189</ele>
        <time>2011-03-30T11:33:44.000Z</time>
      </trkpt>
      <trkpt lat="43.62877" lon="7.0321">
        <ele>192.60000610352</ele>
        <time>2011-03-30T11:33:51.000Z</time>
      </trkpt>
      <trkpt lat="43.62878" lon="7.03233">
        <ele>193</ele>
        <time>2011-03-30T11:33:57.000Z</time>
      </trkpt>
      <trkpt lat="43.62888" lon="7.03254">
        <ele>191.39999389648</ele>
        <time>2011-03-30T11:34:04.000Z</time>
      </trkpt>
      <trkpt lat="43.62904" lon="7.03282">
        <ele>190.19999694824</ele>
        <time>2011-03-30T11:34:13.000Z</time>
      </trkpt>
      <trkpt lat="43.62915" lon="7.03309">
        <ele>190.60000610352</ele>
        <time>2011-03-30T11:34:21.000Z</time>
      </trkpt>
      <trkpt lat="43.62918" lon="7.03339">
        <ele>192.80000305176</ele>
        <time>2011-03-30T11:34:29.000Z</time>
      </trkpt>
      <trkpt lat="43.62917" lon="7.03366">
        <ele>194.39999389648</ele>
        <time>2011-03-30T11:34:36.000Z</time>
      </trkpt>
      <trkpt lat="43.62913" lon="7.03401">
        <ele>196.60000610352</ele>
        <time>2011-03-30T11:34:45.000Z</time>
      </trkpt>
      <trkpt lat="43.62901" lon="7.03428">
        <ele>198.60000610352</ele>
        <time>2011-03-30T11:34:53.000Z</time>
      </trkpt>
      <trkpt lat="43.62885" lon="7.03452">
        <ele>200.19999694824</ele>
        <time>2011-03-30T11:35:01.000Z</time>
      </trkpt>
      <trkpt lat="43.62872" lon="7.03478">
        <ele>201.19999694824</ele>
        <time>2011-03-30T11:35:09.000Z</time>
      </trkpt>
      <trkpt lat="43.62853" lon="7.03515">
        <ele>202.39999389648</ele>
        <time>2011-03-30T11:35:20.000Z</time>
      </trkpt>
      <trkpt lat="43.62839" lon="7.03547">
        <ele>202.39999389648</ele>
        <time>2011-03-30T11:35:29.000Z</time>
      </trkpt>
      <trkpt lat="43.62833" lon="7.03577">
        <ele>202</ele>
        <time>2011-03-30T11:35:37.000Z</time>
      </trkpt>
      <trkpt lat="43.62834" lon="7.03587">
        <ele>201.80000305176</ele>
        <time>2011-03-30T11:35:40.000Z</time>
      </trkpt>
      <trkpt lat="43.62845" lon="7.03598">
        <ele>201.19999694824</ele>
        <time>2011-03-30T11:35:46.000Z</time>
      </trkpt>
      <trkpt lat="43.62852" lon="7.03603">
        <ele>201.19999694824</ele>
        <time>2011-03-30T11:35:50.000Z</time>
      </trkpt>
      <trkpt lat="43.62859" lon="7.03608">
        <ele>201.19999694824</ele>
        <time>2011-03-30T11:35:54.000Z</time>
      </trkpt>
      <trkpt lat="43.62872" lon="7.03614">
        <ele>201.19999694824</ele>
        <time>2011-03-30T11:36:00.000Z</time>
      </trkpt>
      <trkpt lat="43.62882" lon="7.03639">
        <ele>201.80000305176</ele>
        <time>2011-03-30T11:36:07.000Z</time>
      </trkpt>
      <trkpt lat="43.62889" lon="7.03653">
        <ele>202.60000610352</ele>
        <time>2011-03-30T11:36:11.000Z</time>
      </trkpt>
      <trkpt lat="43.62906" lon="7.03671">
        <ele>204.19999694824</ele>
        <time>2011-03-30T11:36:19.000Z</time>
      </trkpt>
      <trkpt lat="43.62916" lon="7.03683">
        <ele>205.39999389648</ele>
        <time>2011-03-30T11:36:24.000Z</time>
      </trkpt>
      <trkpt lat="43.62926" lon="7.03696">
        <ele>205</ele>
        <time>2011-03-30T11:36:29.000Z</time>
      </trkpt>
      <trkpt lat="43.62927" lon="7.03709">
        <ele>205.39999389648</ele>
        <time>2011-03-30T11:36:33.000Z</time>
      </trkpt>
      <trkpt lat="43.62924" lon="7.03726">
        <ele>206.19999694824</ele>
        <time>2011-03-30T11:36:38.000Z</time>
      </trkpt>
      <trkpt lat="43.62927" lon="7.03738">
        <ele>206.60000610352</ele>
        <time>2011-03-30T11:36:43.000Z</time>
      </trkpt>
      <trkpt lat="43.62927" lon="7.03739">
        <ele>206.60000610352</ele>
        <time>2011-03-30T11:36:44.000Z</time>
      </trkpt>
      <trkpt lat="43.62936" lon="7.03749">
        <ele>206.19999694824</ele>
        <time>2011-03-30T11:36:49.000Z</time>
      </trkpt>
      <trkpt lat="43.62942" lon="7.03778">
        <ele>204.19999694824</ele>
        <time>2011-03-30T11:36:53.000Z</time>
      </trkpt>
      <trkpt lat="43.62937" lon="7.03795">
        <ele>203.80000305176</ele>
        <time>2011-03-30T11:36:55.000Z</time>
      </trkpt>
      <trkpt lat="43.62921" lon="7.03814">
        <ele>204.39999389648</ele>
        <time>2011-03-30T11:36:59.000Z</time>
      </trkpt>
      <trkpt lat="43.62916" lon="7.03827">
        <ele>204.19999694824</ele>
        <time>2011-03-30T11:37:01.000Z</time>
      </trkpt>
      <trkpt lat="43.62916" lon="7.03856">
        <ele>202.80000305176</ele>
        <time>2011-03-30T11:37:05.000Z</time>
      </trkpt>
      <trkpt lat="43.62916" lon="7.03864">
        <ele>202.39999389648</ele>
        <time>2011-03-30T11:37:06.000Z</time>
      </trkpt>
      <trkpt lat="43.62915" lon="7.03898">
        <ele>200.60000610352</ele>
        <time>2011-03-30T11:37:11.000Z</time>
      </trkpt>
      <trkpt lat="43.62916" lon="7.03935">
        <ele>199</ele>
        <time>2011-03-30T11:37:16.000Z</time>
      </trkpt>
      <trkpt lat="43.62926" lon="7.03958">
        <ele>197</ele>
        <time>2011-03-30T11:37:19.000Z</time>
      </trkpt>
      <trkpt lat="43.62943" lon="7.03994">
        <ele>194.39999389648</ele>
        <time>2011-03-30T11:37:23.000Z</time>
      </trkpt>
      <trkpt lat="43.62939" lon="7.04022">
        <ele>194.19999694824</ele>
        <time>2011-03-30T11:37:27.000Z</time>
      </trkpt>
      <trkpt lat="43.62941" lon="7.04043">
        <ele>194</ele>
        <time>2011-03-30T11:37:31.000Z</time>
      </trkpt>
      <trkpt lat="43.62945" lon="7.04051">
        <ele>194</ele>
        <time>2011-03-30T11:37:35.000Z</time>
      </trkpt>
      <trkpt lat="43.62946" lon="7.04053">
        <ele>194</ele>
        <time>2011-03-30T11:37:37.000Z</time>
      </trkpt>
      <trkpt lat="43.62946" lon="7.04055">
        <ele>194</ele>
        <time>2011-03-30T11:37:43.000Z</time>
      </trkpt>
      <trkpt lat="43.62948" lon="7.04055">
        <ele>194.19999694824</ele>
        <time>2011-03-30T11:37:54.000Z</time>
      </trkpt>
      <trkpt lat="43.6295" lon="7.04053">
        <ele>194.19999694824</ele>
        <time>2011-03-30T11:37:56.000Z</time>
      </trkpt>
      <trkpt lat="43.62948" lon="7.04049">
        <ele>194.19999694824</ele>
        <time>2011-03-30T11:38:02.000Z</time>
      </trkpt>
      <trkpt lat="43.62947" lon="7.0405">
        <ele>194</ele>
        <time>2011-03-30T11:38:04.000Z</time>
      </trkpt>
      <trkpt lat="43.62944" lon="7.04064">
        <ele>194</ele>
        <time>2011-03-30T11:38:09.000Z</time>
      </trkpt>
      <trkpt lat="43.62945" lon="7.04083">
        <ele>194</ele>
        <time>2011-03-30T11:38:16.000Z</time>
      </trkpt>
      <trkpt lat="43.62952" lon="7.04101">
        <ele>194.80000305176</ele>
        <time>2011-03-30T11:38:21.000Z</time>
      </trkpt>
      <trkpt lat="43.62953" lon="7.04116">
        <ele>195.19999694824</ele>
        <time>2011-03-30T11:38:25.000Z</time>
      </trkpt>
      <trkpt lat="43.62943" lon="7.04136">
        <ele>194.39999389648</ele>
        <time>2011-03-30T11:38:30.000Z</time>
      </trkpt>
      <trkpt lat="43.62939" lon="7.04175">
        <ele>194.19999694824</ele>
        <time>2011-03-30T11:38:37.000Z</time>
      </trkpt>
      <trkpt lat="43.62934" lon="7.04234">
        <ele>194.19999694824</ele>
        <time>2011-03-30T11:38:46.000Z</time>
      </trkpt>
      <trkpt lat="43.62934" lon="7.04242">
        <ele>194.19999694824</ele>
        <time>2011-03-30T11:38:47.000Z</time>
      </trkpt>
      <trkpt lat="43.62924" lon="7.04296">
        <ele>191.80000305176</ele>
        <time>2011-03-30T11:38:53.000Z</time>
      </trkpt>
      <trkpt lat="43.6291" lon="7.04354">
        <ele>188.39999389648</ele>
        <time>2011-03-30T11:38:58.000Z</time>
      </trkpt>
      <trkpt lat="43.62896" lon="7.04404">
        <ele>184.60000610352</ele>
        <time>2011-03-30T11:39:02.000Z</time>
      </trkpt>
      <trkpt lat="43.62892" lon="7.04447">
        <ele>182.19999694824</ele>
        <time>2011-03-30T11:39:06.000Z</time>
      </trkpt>
      <trkpt lat="43.62887" lon="7.0448">
        <ele>180.60000610352</ele>
        <time>2011-03-30T11:39:10.000Z</time>
      </trkpt>
      <trkpt lat="43.62889" lon="7.04485">
        <ele>180.19999694824</ele>
        <time>2011-03-30T11:39:11.000Z</time>
      </trkpt>
      <trkpt lat="43.62905" lon="7.04517">
        <ele>179.60000610352</ele>
        <time>2011-03-30T11:39:17.000Z</time>
      </trkpt>
      <trkpt lat="43.62907" lon="7.04521">
        <ele>179.80000305176</ele>
        <time>2011-03-30T11:39:18.000Z</time>
      </trkpt>
      <trkpt lat="43.62915" lon="7.0454">
        <ele>180</ele>
        <time>2011-03-30T11:39:22.000Z</time>
      </trkpt>
      <trkpt lat="43.62933" lon="7.04568">
        <ele>178.80000305176</ele>
        <time>2011-03-30T11:39:30.000Z</time>
      </trkpt>
      <trkpt lat="43.62956" lon="7.04587">
        <ele>176.39999389648</ele>
        <time>2011-03-30T11:39:36.000Z</time>
      </trkpt>
      <trkpt lat="43.6296" lon="7.04591">
        <ele>176</ele>
        <time>2011-03-30T11:39:37.000Z</time>
      </trkpt>
      <trkpt lat="43.62972" lon="7.04602">
        <ele>175.19999694824</ele>
        <time>2011-03-30T11:39:40.000Z</time>
      </trkpt>
      <trkpt lat="43.62988" lon="7.04626">
        <ele>174.19999694824</ele>
        <time>2011-03-30T11:39:45.000Z</time>
      </trkpt>
      <trkpt lat="43.6301" lon="7.04674">
        <ele>172.39999389648</ele>
        <time>2011-03-30T11:39:52.000Z</time>
      </trkpt>
      <trkpt lat="43.63024" lon="7.04726">
        <ele>172.39999389648</ele>
        <time>2011-03-30T11:39:59.000Z</time>
      </trkpt>
      <trkpt lat="43.6303" lon="7.04795">
        <ele>172.39999389648</ele>
        <time>2011-03-30T11:40:07.000Z</time>
      </trkpt>
      <trkpt lat="43.63032" lon="7.04813">
        <ele>172.19999694824</ele>
        <time>2011-03-30T11:40:09.000Z</time>
      </trkpt>
      <trkpt lat="43.63045" lon="7.04849">
        <ele>170</ele>
        <time>2011-03-30T11:40:14.000Z</time>
      </trkpt>
      <trkpt lat="43.63048" lon="7.04855">
        <ele>169.39999389648</ele>
        <time>2011-03-30T11:40:15.000Z</time>
      </trkpt>
      <trkpt lat="43.63049" lon="7.04885">
        <ele>169.60000610352</ele>
        <time>2011-03-30T11:40:20.000Z</time>
      </trkpt>
      <trkpt lat="43.63045" lon="7.04897">
        <ele>170.60000610352</ele>
        <time>2011-03-30T11:40:22.000Z</time>
      </trkpt>
      <trkpt lat="43.63018" lon="7.04955">
        <ele>175.60000610352</ele>
        <time>2011-03-30T11:40:32.000Z</time>
      </trkpt>
      <trkpt lat="43.63007" lon="7.04995">
        <ele>177.60000610352</ele>
        <time>2011-03-30T11:40:38.000Z</time>
      </trkpt>
      <trkpt lat="43.62994" lon="7.05038">
        <ele>179.60000610352</ele>
        <time>2011-03-30T11:40:45.000Z</time>
      </trkpt>
      <trkpt lat="43.62994" lon="7.05067">
        <ele>179.80000305176</ele>
        <time>2011-03-30T11:40:50.000Z</time>
      </trkpt>
      <trkpt lat="43.62994" lon="7.05077">
        <ele>179.80000305176</ele>
        <time>2011-03-30T11:40:52.000Z</time>
      </trkpt>
      <trkpt lat="43.62987" lon="7.05112">
        <ele>180.80000305176</ele>
        <time>2011-03-30T11:40:59.000Z</time>
      </trkpt>
      <trkpt lat="43.62984" lon="7.05145">
        <ele>182</ele>
        <time>2011-03-30T11:41:06.000Z</time>
      </trkpt>
      <trkpt lat="43.62988" lon="7.05178">
        <ele>183.60000610352</ele>
        <time>2011-03-30T11:41:14.000Z</time>
      </trkpt>
      <trkpt lat="43.62998" lon="7.052">
        <ele>185</ele>
        <time>2011-03-30T11:41:20.000Z</time>
      </trkpt>
      <trkpt lat="43.63004" lon="7.05217">
        <ele>184.80000305176</ele>
        <time>2011-03-30T11:41:26.000Z</time>
      </trkpt>
      <trkpt lat="43.63007" lon="7.05223">
        <ele>184.39999389648</ele>
        <time>2011-03-30T11:41:31.000Z</time>
      </trkpt>
      <trkpt lat="43.63007" lon="7.05224">
        <ele>184.39999389648</ele>
        <time>2011-03-30T11:41:36.000Z</time>
      </trkpt>
      <trkpt lat="43.63007" lon="7.05225">
        <ele>184.39999389648</ele>
        <time>2011-03-30T11:41:39.000Z</time>
      </trkpt>
      <trkpt lat="43.63013" lon="7.05247">
        <ele>183.60000610352</ele>
        <time>2011-03-30T11:41:45.000Z</time>
      </trkpt>
      <trkpt lat="43.63019" lon="7.05277">
        <ele>181.19999694824</ele>
        <time>2011-03-30T11:41:50.000Z</time>
      </trkpt>
      <trkpt lat="43.63012" lon="7.05306">
        <ele>181.39999389648</ele>
        <time>2011-03-30T11:41:54.000Z</time>
      </trkpt>
      <trkpt lat="43.6301" lon="7.05315">
        <ele>181.60000610352</ele>
        <time>2011-03-30T11:41:55.000Z</time>
      </trkpt>
      <trkpt lat="43.62986" lon="7.05369">
        <ele>179.80000305176</ele>
        <time>2011-03-30T11:42:02.000Z</time>
      </trkpt>
      <trkpt lat="43.62969" lon="7.05427">
        <ele>177.39999389648</ele>
        <time>2011-03-30T11:42:08.000Z</time>
      </trkpt>
      <trkpt lat="43.62953" lon="7.05468">
        <ele>178.19999694824</ele>
        <time>2011-03-30T11:42:13.000Z</time>
      </trkpt>
      <trkpt lat="43.62938" lon="7.05496">
        <ele>179</ele>
        <time>2011-03-30T11:42:17.000Z</time>
      </trkpt>
      <trkpt lat="43.62917" lon="7.05519">
        <ele>179</ele>
        <time>2011-03-30T11:42:21.000Z</time>
      </trkpt>
      <trkpt lat="43.62907" lon="7.05548">
        <ele>176.60000610352</ele>
        <time>2011-03-30T11:42:25.000Z</time>
      </trkpt>
      <trkpt lat="43.62902" lon="7.05594">
        <ele>174</ele>
        <time>2011-03-30T11:42:30.000Z</time>
      </trkpt>
      <trkpt lat="43.62892" lon="7.05634">
        <ele>171</ele>
        <time>2011-03-30T11:42:34.000Z</time>
      </trkpt>
      <trkpt lat="43.62881" lon="7.05664">
        <ele>169.39999389648</ele>
        <time>2011-03-30T11:42:37.000Z</time>
      </trkpt>
      <trkpt lat="43.62872" lon="7.05693">
        <ele>169</ele>
        <time>2011-03-30T11:42:40.000Z</time>
      </trkpt>
      <trkpt lat="43.62851" lon="7.05711">
        <ele>169.60000610352</ele>
        <time>2011-03-30T11:42:44.000Z</time>
      </trkpt>
      <trkpt lat="43.62845" lon="7.05712">
        <ele>170</ele>
        <time>2011-03-30T11:42:45.000Z</time>
      </trkpt>
      <trkpt lat="43.62822" lon="7.05718">
        <ele>169.60000610352</ele>
        <time>2011-03-30T11:42:49.000Z</time>
      </trkpt>
      <trkpt lat="43.62771" lon="7.05743">
        <ele>167.39999389648</ele>
        <time>2011-03-30T11:42:58.000Z</time>
      </trkpt>
      <trkpt lat="43.62755" lon="7.05751">
        <ele>167.19999694824</ele>
        <time>2011-03-30T11:43:01.000Z</time>
      </trkpt>
      <trkpt lat="43.62736" lon="7.05752">
        <ele>165.60000610352</ele>
        <time>2011-03-30T11:43:05.000Z</time>
      </trkpt>
      <trkpt lat="43.62718" lon="7.05736">
        <ele>162</ele>
        <time>2011-03-30T11:43:09.000Z</time>
      </trkpt>
      <trkpt lat="43.62694" lon="7.05728">
        <ele>158.80000305176</ele>
        <time>2011-03-30T11:43:12.000Z</time>
      </trkpt>
      <trkpt lat="43.62677" lon="7.0573">
        <ele>157.19999694824</ele>
        <time>2011-03-30T11:43:14.000Z</time>
      </trkpt>
      <trkpt lat="43.62651" lon="7.05741">
        <ele>155.60000610352</ele>
        <time>2011-03-30T11:43:17.000Z</time>
      </trkpt>
      <trkpt lat="43.62626" lon="7.05772">
        <ele>155.60000610352</ele>
        <time>2011-03-30T11:43:21.000Z</time>
      </trkpt>
      <trkpt lat="43.62615" lon="7.0579">
        <ele>155.80000305176</ele>
        <time>2011-03-30T11:43:23.000Z</time>
      </trkpt>
      <trkpt lat="43.62595" lon="7.05812">
        <ele>155.60000610352</ele>
        <time>2011-03-30T11:43:26.000Z</time>
      </trkpt>
      <trkpt lat="43.62574" lon="7.05831">
        <ele>154.80000305176</ele>
        <time>2011-03-30T11:43:29.000Z</time>
      </trkpt>
      <trkpt lat="43.62553" lon="7.05852">
        <ele>153.60000610352</ele>
        <time>2011-03-30T11:43:32.000Z</time>
      </trkpt>
      <trkpt lat="43.62507" lon="7.05879">
        <ele>151.19999694824</ele>
        <time>2011-03-30T11:43:38.000Z</time>
      </trkpt>
      <trkpt lat="43.62478" lon="7.05894">
        <ele>150</ele>
        <time>2011-03-30T11:43:42.000Z</time>
      </trkpt>
      <trkpt lat="43.62442" lon="7.059">
        <ele>147.39999389648</ele>
        <time>2011-03-30T11:43:47.000Z</time>
      </trkpt>
      <trkpt lat="43.62435" lon="7.05903">
        <ele>147</ele>
        <time>2011-03-30T11:43:48.000Z</time>
      </trkpt>
      <trkpt lat="43.62411" lon="7.05928">
        <ele>146</ele>
        <time>2011-03-30T11:43:53.000Z</time>
      </trkpt>
      <trkpt lat="43.62408" lon="7.05948">
        <ele>146.19999694824</ele>
        <time>2011-03-30T11:43:58.000Z</time>
      </trkpt>
      <trkpt lat="43.62402" lon="7.05958">
        <ele>146.19999694824</ele>
        <time>2011-03-30T11:44:01.000Z</time>
      </trkpt>
      <trkpt lat="43.62407" lon="7.05967">
        <ele>146.39999389648</ele>
        <time>2011-03-30T11:44:04.000Z</time>
      </trkpt>
      <trkpt lat="43.62409" lon="7.05977">
        <ele>146.60000610352</ele>
        <time>2011-03-30T11:44:07.000Z</time>
      </trkpt>
      <trkpt lat="43.62414" lon="7.05978">
        <ele>146.60000610352</ele>
        <time>2011-03-30T11:44:10.000Z</time>
      </trkpt>
      <trkpt lat="43.62409" lon="7.05976">
        <ele>146.60000610352</ele>
        <time>2011-03-30T11:44:13.000Z</time>
      </trkpt>
      <trkpt lat="43.62405" lon="7.05976">
        <ele>146.60000610352</ele>
        <time>2011-03-30T11:44:14.000Z</time>
      </trkpt>
      <trkpt lat="43.62387" lon="7.05978">
        <ele>146.80000305176</ele>
        <time>2011-03-30T11:44:18.000Z</time>
      </trkpt>
      <trkpt lat="43.6238" lon="7.06002">
        <ele>147.19999694824</ele>
        <time>2011-03-30T11:44:22.000Z</time>
      </trkpt>
      <trkpt lat="43.62377" lon="7.06031">
        <ele>145.80000305176</ele>
        <time>2011-03-30T11:44:26.000Z</time>
      </trkpt>
      <trkpt lat="43.62359" lon="7.06089">
        <ele>142.60000610352</ele>
        <time>2011-03-30T11:44:33.000Z</time>
      </trkpt>
      <trkpt lat="43.62338" lon="7.06148">
        <ele>137.60000610352</ele>
        <time>2011-03-30T11:44:39.000Z</time>
      </trkpt>
      <trkpt lat="43.62316" lon="7.06189">
        <ele>132</ele>
        <time>2011-03-30T11:44:45.000Z</time>
      </trkpt>
      <trkpt lat="43.62312" lon="7.06194">
        <ele>131.39999389648</ele>
        <time>2011-03-30T11:44:46.000Z</time>
      </trkpt>
      <trkpt lat="43.62294" lon="7.06202">
        <ele>129.60000610352</ele>
        <time>2011-03-30T11:44:50.000Z</time>
      </trkpt>
      <trkpt lat="43.62284" lon="7.06199">
        <ele>129.39999389648</ele>
        <time>2011-03-30T11:44:53.000Z</time>
      </trkpt>
      <trkpt lat="43.62285" lon="7.06203">
        <ele>129.19999694824</ele>
        <time>2011-03-30T11:44:57.000Z</time>
      </trkpt>
      <trkpt lat="43.62285" lon="7.062">
        <ele>129.39999389648</ele>
        <time>2011-03-30T11:45:02.000Z</time>
      </trkpt>
      <trkpt lat="43.62285" lon="7.06196">
        <ele>129.80000305176</ele>
        <time>2011-03-30T11:45:14.000Z</time>
      </trkpt>
      <trkpt lat="43.62292" lon="7.06197">
        <ele>130</ele>
        <time>2011-03-30T11:45:18.000Z</time>
      </trkpt>
      <trkpt lat="43.62306" lon="7.06199">
        <ele>130.39999389648</ele>
        <time>2011-03-30T11:45:23.000Z</time>
      </trkpt>
      <trkpt lat="43.62313" lon="7.06196">
        <ele>131</ele>
        <time>2011-03-30T11:45:25.000Z</time>
      </trkpt>
      <trkpt lat="43.62327" lon="7.0619">
        <ele>132.60000610352</ele>
        <time>2011-03-30T11:45:30.000Z</time>
      </trkpt>
      <trkpt lat="43.62334" lon="7.06196">
        <ele>132</ele>
        <time>2011-03-30T11:45:33.000Z</time>
      </trkpt>
    </trkseg>
  </trk>
</gpx>